<?xml version="1.0" encoding="utf-8"?>
<gpx xmlns:xsi="http://www.w3.org/2001/XMLSchema-instance" xmlns:xsd="http://www.w3.org/2001/XMLSchema" version="1.1" creator="Shapelink.com" xmlns="http://www.topografix.com/GPX/1/1" xmlns:gpxtpx="http://www.garmin.com/xmlschemas/TrackPointExtension/v1">
  <metadata>
    <name>Løping 2.43 km, 2014-07-06</name>
    <desc></desc>
    <author><name>Mikael Blom</name></author> 
    <time>2014-07-06T08:26:55Z</time>
  </metadata>
  <trk>
    <name>Løping 2.43 km, 2014-07-06</name>
    <trkseg>
      <trkpt lat="59.95413" lon="17.7147353">
        <ele>44.358</ele>
        <time>2014-07-06T08:26:55Z</time>
      </trkpt>
      <trkpt lat="59.9541157" lon="17.7147358">
        <ele>43.8773</ele>
        <time>2014-07-06T08:26:56Z</time>
      </trkpt>
      <trkpt lat="59.9540954" lon="17.7147416">
        <ele>43.8773</ele>
        <time>2014-07-06T08:26:57Z</time>
      </trkpt>
      <trkpt lat="59.954073" lon="17.7147473">
        <ele>43.3966</ele>
        <time>2014-07-06T08:26:58Z</time>
      </trkpt>
      <trkpt lat="59.9540528" lon="17.7147529">
        <ele>43.8773</ele>
        <time>2014-07-06T08:26:59Z</time>
      </trkpt>
      <trkpt lat="59.9540329" lon="17.7147515">
        <ele>43.3966</ele>
        <time>2014-07-06T08:27:00Z</time>
      </trkpt>
      <trkpt lat="59.9539975" lon="17.7147763">
        <ele>43.3966</ele>
        <time>2014-07-06T08:27:01Z</time>
      </trkpt>
      <trkpt lat="59.9539695" lon="17.7147754">
        <ele>42.916</ele>
        <time>2014-07-06T08:27:02Z</time>
      </trkpt>
      <trkpt lat="59.9539374" lon="17.7147701">
        <ele>42.4354</ele>
        <time>2014-07-06T08:27:03Z</time>
      </trkpt>
      <trkpt lat="59.9539042" lon="17.714757">
        <ele>41.9547</ele>
        <time>2014-07-06T08:27:04Z</time>
      </trkpt>
      <trkpt lat="59.9538761" lon="17.7147479">
        <ele>41.474</ele>
        <time>2014-07-06T08:27:05Z</time>
      </trkpt>
      <trkpt lat="59.9538521" lon="17.7147452">
        <ele>41.474</ele>
        <time>2014-07-06T08:27:06Z</time>
      </trkpt>
      <trkpt lat="59.9538276" lon="17.7147488">
        <ele>40.9934</ele>
        <time>2014-07-06T08:27:07Z</time>
      </trkpt>
      <trkpt lat="59.9538089" lon="17.7147565">
        <ele>41.474</ele>
        <time>2014-07-06T08:27:08Z</time>
      </trkpt>
      <trkpt lat="59.9537892" lon="17.7147719">
        <ele>41.474</ele>
        <time>2014-07-06T08:27:09Z</time>
      </trkpt>
      <trkpt lat="59.9537683" lon="17.7147912">
        <ele>41.474</ele>
        <time>2014-07-06T08:27:10Z</time>
      </trkpt>
      <trkpt lat="59.9537462" lon="17.7148073">
        <ele>40.5128</ele>
        <time>2014-07-06T08:27:11Z</time>
      </trkpt>
      <trkpt lat="59.9537283" lon="17.7148276">
        <ele>40.9934</ele>
        <time>2014-07-06T08:27:12Z</time>
      </trkpt>
      <trkpt lat="59.9537053" lon="17.7148493">
        <ele>40.9934</ele>
        <time>2014-07-06T08:27:13Z</time>
      </trkpt>
      <trkpt lat="59.9536831" lon="17.7148753">
        <ele>41.9547</ele>
        <time>2014-07-06T08:27:14Z</time>
      </trkpt>
      <trkpt lat="59.9536577" lon="17.7148991">
        <ele>40.9934</ele>
        <time>2014-07-06T08:27:15Z</time>
      </trkpt>
      <trkpt lat="59.9536376" lon="17.7149239">
        <ele>41.474</ele>
        <time>2014-07-06T08:27:16Z</time>
      </trkpt>
      <trkpt lat="59.9536204" lon="17.7149581">
        <ele>41.9547</ele>
        <time>2014-07-06T08:27:17Z</time>
      </trkpt>
      <trkpt lat="59.9535987" lon="17.7149924">
        <ele>41.9547</ele>
        <time>2014-07-06T08:27:18Z</time>
      </trkpt>
      <trkpt lat="59.953564" lon="17.7150343">
        <ele>41.9547</ele>
        <time>2014-07-06T08:27:19Z</time>
      </trkpt>
      <trkpt lat="59.9535272" lon="17.7150836">
        <ele>41.474</ele>
        <time>2014-07-06T08:27:20Z</time>
      </trkpt>
      <trkpt lat="59.9534971" lon="17.7151321">
        <ele>41.474</ele>
        <time>2014-07-06T08:27:21Z</time>
      </trkpt>
      <trkpt lat="59.9534676" lon="17.7151827">
        <ele>40.9934</ele>
        <time>2014-07-06T08:27:22Z</time>
      </trkpt>
      <trkpt lat="59.9534365" lon="17.7152331">
        <ele>40.9934</ele>
        <time>2014-07-06T08:27:23Z</time>
      </trkpt>
      <trkpt lat="59.9534075" lon="17.7152767">
        <ele>40.5128</ele>
        <time>2014-07-06T08:27:24Z</time>
      </trkpt>
      <trkpt lat="59.9533904" lon="17.7153161">
        <ele>40.9934</ele>
        <time>2014-07-06T08:27:25Z</time>
      </trkpt>
      <trkpt lat="59.9533759" lon="17.7153516">
        <ele>41.474</ele>
        <time>2014-07-06T08:27:26Z</time>
      </trkpt>
      <trkpt lat="59.9533563" lon="17.7153868">
        <ele>42.4354</ele>
        <time>2014-07-06T08:27:27Z</time>
      </trkpt>
      <trkpt lat="59.9533317" lon="17.7154226">
        <ele>43.8773</ele>
        <time>2014-07-06T08:27:28Z</time>
      </trkpt>
      <trkpt lat="59.953308" lon="17.7154579">
        <ele>45.3192</ele>
        <time>2014-07-06T08:27:29Z</time>
      </trkpt>
      <trkpt lat="59.9532894" lon="17.7154968">
        <ele>47.2418</ele>
        <time>2014-07-06T08:27:30Z</time>
      </trkpt>
      <trkpt lat="59.9532707" lon="17.7155275">
        <ele>47.7225</ele>
        <time>2014-07-06T08:27:31Z</time>
      </trkpt>
      <trkpt lat="59.9532527" lon="17.7155545">
        <ele>48.684</ele>
        <time>2014-07-06T08:27:32Z</time>
      </trkpt>
      <trkpt lat="59.9532282" lon="17.7155827">
        <ele>48.684</ele>
        <time>2014-07-06T08:27:33Z</time>
      </trkpt>
      <trkpt lat="59.9532037" lon="17.7156201">
        <ele>48.684</ele>
        <time>2014-07-06T08:27:34Z</time>
      </trkpt>
      <trkpt lat="59.9531872" lon="17.7156669">
        <ele>48.684</ele>
        <time>2014-07-06T08:27:35Z</time>
      </trkpt>
      <trkpt lat="59.9531659" lon="17.7157186">
        <ele>47.7225</ele>
        <time>2014-07-06T08:27:36Z</time>
      </trkpt>
      <trkpt lat="59.9531514" lon="17.7157631">
        <ele>47.2418</ele>
        <time>2014-07-06T08:27:37Z</time>
      </trkpt>
      <trkpt lat="59.9531376" lon="17.7158097">
        <ele>46.7612</ele>
        <time>2014-07-06T08:27:38Z</time>
      </trkpt>
      <trkpt lat="59.9531236" lon="17.7158614">
        <ele>46.2806</ele>
        <time>2014-07-06T08:27:39Z</time>
      </trkpt>
      <trkpt lat="59.9531049" lon="17.7159178">
        <ele>45.7999</ele>
        <time>2014-07-06T08:27:40Z</time>
      </trkpt>
      <trkpt lat="59.9530868" lon="17.7159852">
        <ele>44.8386</ele>
        <time>2014-07-06T08:27:41Z</time>
      </trkpt>
      <trkpt lat="59.9530635" lon="17.7160369">
        <ele>43.8773</ele>
        <time>2014-07-06T08:27:42Z</time>
      </trkpt>
      <trkpt lat="59.9530428" lon="17.7160984">
        <ele>43.3966</ele>
        <time>2014-07-06T08:27:43Z</time>
      </trkpt>
      <trkpt lat="59.9530294" lon="17.7161423">
        <ele>42.916</ele>
        <time>2014-07-06T08:27:44Z</time>
      </trkpt>
      <trkpt lat="59.9530129" lon="17.7162009">
        <ele>42.4354</ele>
        <time>2014-07-06T08:27:45Z</time>
      </trkpt>
      <trkpt lat="59.952991" lon="17.7162598">
        <ele>41.474</ele>
        <time>2014-07-06T08:27:46Z</time>
      </trkpt>
      <trkpt lat="59.9529711" lon="17.7163218">
        <ele>40.9934</ele>
        <time>2014-07-06T08:27:47Z</time>
      </trkpt>
      <trkpt lat="59.9529516" lon="17.716378">
        <ele>40.5128</ele>
        <time>2014-07-06T08:27:48Z</time>
      </trkpt>
      <trkpt lat="59.952925" lon="17.7164584">
        <ele>40.5128</ele>
        <time>2014-07-06T08:27:49Z</time>
      </trkpt>
      <trkpt lat="59.952904" lon="17.7165182">
        <ele>39.5513</ele>
        <time>2014-07-06T08:27:50Z</time>
      </trkpt>
      <trkpt lat="59.9528915" lon="17.7165702">
        <ele>38.5901</ele>
        <time>2014-07-06T08:27:51Z</time>
      </trkpt>
      <trkpt lat="59.9528806" lon="17.716622">
        <ele>37.1481</ele>
        <time>2014-07-06T08:27:52Z</time>
      </trkpt>
      <trkpt lat="59.9528651" lon="17.7166847">
        <ele>36.6675</ele>
        <time>2014-07-06T08:27:53Z</time>
      </trkpt>
      <trkpt lat="59.9528546" lon="17.716749">
        <ele>36.1868</ele>
        <time>2014-07-06T08:27:54Z</time>
      </trkpt>
      <trkpt lat="59.9528451" lon="17.7168152">
        <ele>35.7061</ele>
        <time>2014-07-06T08:27:55Z</time>
      </trkpt>
      <trkpt lat="59.9528326" lon="17.7168811">
        <ele>34.7449</ele>
        <time>2014-07-06T08:27:56Z</time>
      </trkpt>
      <trkpt lat="59.952823" lon="17.7169379">
        <ele>34.2642</ele>
        <time>2014-07-06T08:27:57Z</time>
      </trkpt>
      <trkpt lat="59.9528171" lon="17.7169927">
        <ele>34.2642</ele>
        <time>2014-07-06T08:27:58Z</time>
      </trkpt>
      <trkpt lat="59.9528088" lon="17.7170545">
        <ele>34.7449</ele>
        <time>2014-07-06T08:27:59Z</time>
      </trkpt>
      <trkpt lat="59.9527989" lon="17.7171083">
        <ele>34.7449</ele>
        <time>2014-07-06T08:28:00Z</time>
      </trkpt>
      <trkpt lat="59.9527862" lon="17.717155">
        <ele>34.2642</ele>
        <time>2014-07-06T08:28:01Z</time>
      </trkpt>
      <trkpt lat="59.9527714" lon="17.7172104">
        <ele>34.2642</ele>
        <time>2014-07-06T08:28:02Z</time>
      </trkpt>
      <trkpt lat="59.9527574" lon="17.7172653">
        <ele>33.3029</ele>
        <time>2014-07-06T08:28:03Z</time>
      </trkpt>
      <trkpt lat="59.9527469" lon="17.7173068">
        <ele>33.3029</ele>
        <time>2014-07-06T08:28:04Z</time>
      </trkpt>
      <trkpt lat="59.9527404" lon="17.7173492">
        <ele>33.7834</ele>
        <time>2014-07-06T08:28:05Z</time>
      </trkpt>
      <trkpt lat="59.9527273" lon="17.7174022">
        <ele>33.7834</ele>
        <time>2014-07-06T08:28:06Z</time>
      </trkpt>
      <trkpt lat="59.952715" lon="17.7174518">
        <ele>35.2255</ele>
        <time>2014-07-06T08:28:07Z</time>
      </trkpt>
      <trkpt lat="59.9526994" lon="17.7174967">
        <ele>35.2255</ele>
        <time>2014-07-06T08:28:08Z</time>
      </trkpt>
      <trkpt lat="59.9526885" lon="17.7175451">
        <ele>35.7061</ele>
        <time>2014-07-06T08:28:09Z</time>
      </trkpt>
      <trkpt lat="59.9526781" lon="17.717592">
        <ele>36.1868</ele>
        <time>2014-07-06T08:28:10Z</time>
      </trkpt>
      <trkpt lat="59.9526642" lon="17.717643">
        <ele>37.1481</ele>
        <time>2014-07-06T08:28:11Z</time>
      </trkpt>
      <trkpt lat="59.9526494" lon="17.7176818">
        <ele>37.1481</ele>
        <time>2014-07-06T08:28:12Z</time>
      </trkpt>
      <trkpt lat="59.9526341" lon="17.7177202">
        <ele>37.1481</ele>
        <time>2014-07-06T08:28:13Z</time>
      </trkpt>
      <trkpt lat="59.9526228" lon="17.7177594">
        <ele>37.6287</ele>
        <time>2014-07-06T08:28:14Z</time>
      </trkpt>
      <trkpt lat="59.9526067" lon="17.7178037">
        <ele>37.1481</ele>
        <time>2014-07-06T08:28:15Z</time>
      </trkpt>
      <trkpt lat="59.9525917" lon="17.7178469">
        <ele>37.1481</ele>
        <time>2014-07-06T08:28:16Z</time>
      </trkpt>
      <trkpt lat="59.9525778" lon="17.7178836">
        <ele>37.1481</ele>
        <time>2014-07-06T08:28:17Z</time>
      </trkpt>
      <trkpt lat="59.9525655" lon="17.7179217">
        <ele>37.1481</ele>
        <time>2014-07-06T08:28:18Z</time>
      </trkpt>
      <trkpt lat="59.952555" lon="17.7179613">
        <ele>36.6675</ele>
        <time>2014-07-06T08:28:19Z</time>
      </trkpt>
      <trkpt lat="59.9525384" lon="17.7180045">
        <ele>36.1868</ele>
        <time>2014-07-06T08:28:20Z</time>
      </trkpt>
      <trkpt lat="59.9525228" lon="17.7180454">
        <ele>36.1868</ele>
        <time>2014-07-06T08:28:21Z</time>
      </trkpt>
      <trkpt lat="59.9525088" lon="17.7181079">
        <ele>36.6675</ele>
        <time>2014-07-06T08:28:22Z</time>
      </trkpt>
      <trkpt lat="59.9524982" lon="17.7181613">
        <ele>36.1868</ele>
        <time>2014-07-06T08:28:23Z</time>
      </trkpt>
      <trkpt lat="59.9524871" lon="17.7182105">
        <ele>35.7061</ele>
        <time>2014-07-06T08:28:24Z</time>
      </trkpt>
      <trkpt lat="59.9524761" lon="17.7182618">
        <ele>36.1868</ele>
        <time>2014-07-06T08:28:25Z</time>
      </trkpt>
      <trkpt lat="59.9524647" lon="17.7183159">
        <ele>36.1868</ele>
        <time>2014-07-06T08:28:26Z</time>
      </trkpt>
      <trkpt lat="59.9524488" lon="17.7183661">
        <ele>36.1868</ele>
        <time>2014-07-06T08:28:27Z</time>
      </trkpt>
      <trkpt lat="59.9524342" lon="17.7184159">
        <ele>36.1868</ele>
        <time>2014-07-06T08:28:28Z</time>
      </trkpt>
      <trkpt lat="59.9524231" lon="17.7184674">
        <ele>36.1868</ele>
        <time>2014-07-06T08:28:29Z</time>
      </trkpt>
      <trkpt lat="59.9524112" lon="17.7185178">
        <ele>36.6675</ele>
        <time>2014-07-06T08:28:30Z</time>
      </trkpt>
      <trkpt lat="59.9523974" lon="17.7185664">
        <ele>36.6675</ele>
        <time>2014-07-06T08:28:31Z</time>
      </trkpt>
      <trkpt lat="59.9523871" lon="17.7186204">
        <ele>37.6287</ele>
        <time>2014-07-06T08:28:32Z</time>
      </trkpt>
      <trkpt lat="59.9523749" lon="17.7186717">
        <ele>38.1094</ele>
        <time>2014-07-06T08:28:33Z</time>
      </trkpt>
      <trkpt lat="59.9523658" lon="17.7187228">
        <ele>38.5901</ele>
        <time>2014-07-06T08:28:34Z</time>
      </trkpt>
      <trkpt lat="59.9523531" lon="17.7187789">
        <ele>38.1094</ele>
        <time>2014-07-06T08:28:35Z</time>
      </trkpt>
      <trkpt lat="59.9523418" lon="17.7188307">
        <ele>38.1094</ele>
        <time>2014-07-06T08:28:36Z</time>
      </trkpt>
      <trkpt lat="59.9523307" lon="17.7188815">
        <ele>37.6287</ele>
        <time>2014-07-06T08:28:37Z</time>
      </trkpt>
      <trkpt lat="59.9523201" lon="17.7189345">
        <ele>37.6287</ele>
        <time>2014-07-06T08:28:38Z</time>
      </trkpt>
      <trkpt lat="59.9523056" lon="17.7189855">
        <ele>37.1481</ele>
        <time>2014-07-06T08:28:39Z</time>
      </trkpt>
      <trkpt lat="59.9522876" lon="17.7190407">
        <ele>37.1481</ele>
        <time>2014-07-06T08:28:40Z</time>
      </trkpt>
      <trkpt lat="59.9522727" lon="17.7190995">
        <ele>36.6675</ele>
        <time>2014-07-06T08:28:41Z</time>
      </trkpt>
      <trkpt lat="59.9522637" lon="17.7191595">
        <ele>36.6675</ele>
        <time>2014-07-06T08:28:42Z</time>
      </trkpt>
      <trkpt lat="59.95226" lon="17.7192145">
        <ele>36.6675</ele>
        <time>2014-07-06T08:28:43Z</time>
      </trkpt>
      <trkpt lat="59.952258" lon="17.7192677">
        <ele>36.6675</ele>
        <time>2014-07-06T08:28:44Z</time>
      </trkpt>
      <trkpt lat="59.952259" lon="17.7193219">
        <ele>36.6675</ele>
        <time>2014-07-06T08:28:45Z</time>
      </trkpt>
      <trkpt lat="59.9522638" lon="17.7193804">
        <ele>37.1481</ele>
        <time>2014-07-06T08:28:46Z</time>
      </trkpt>
      <trkpt lat="59.9522711" lon="17.7194468">
        <ele>37.1481</ele>
        <time>2014-07-06T08:28:47Z</time>
      </trkpt>
      <trkpt lat="59.9522848" lon="17.7195057">
        <ele>37.6287</ele>
        <time>2014-07-06T08:28:48Z</time>
      </trkpt>
      <trkpt lat="59.9523013" lon="17.7195605">
        <ele>38.1094</ele>
        <time>2014-07-06T08:28:49Z</time>
      </trkpt>
      <trkpt lat="59.9523176" lon="17.719614">
        <ele>37.6287</ele>
        <time>2014-07-06T08:28:50Z</time>
      </trkpt>
      <trkpt lat="59.9523342" lon="17.7196658">
        <ele>38.1094</ele>
        <time>2014-07-06T08:28:51Z</time>
      </trkpt>
      <trkpt lat="59.9523474" lon="17.7197166">
        <ele>37.6287</ele>
        <time>2014-07-06T08:28:52Z</time>
      </trkpt>
      <trkpt lat="59.9523693" lon="17.7197711">
        <ele>38.5901</ele>
        <time>2014-07-06T08:28:53Z</time>
      </trkpt>
      <trkpt lat="59.952386" lon="17.7198305">
        <ele>39.0707</ele>
        <time>2014-07-06T08:28:54Z</time>
      </trkpt>
      <trkpt lat="59.9523979" lon="17.7198957">
        <ele>39.5513</ele>
        <time>2014-07-06T08:28:55Z</time>
      </trkpt>
      <trkpt lat="59.9524122" lon="17.7199579">
        <ele>40.5128</ele>
        <time>2014-07-06T08:28:56Z</time>
      </trkpt>
      <trkpt lat="59.9524169" lon="17.7200111">
        <ele>41.474</ele>
        <time>2014-07-06T08:28:57Z</time>
      </trkpt>
      <trkpt lat="59.9524197" lon="17.7200676">
        <ele>41.9547</ele>
        <time>2014-07-06T08:28:58Z</time>
      </trkpt>
      <trkpt lat="59.9524228" lon="17.7201248">
        <ele>42.4354</ele>
        <time>2014-07-06T08:28:59Z</time>
      </trkpt>
      <trkpt lat="59.9524286" lon="17.7201811">
        <ele>42.916</ele>
        <time>2014-07-06T08:29:00Z</time>
      </trkpt>
      <trkpt lat="59.952436" lon="17.7202464">
        <ele>43.3966</ele>
        <time>2014-07-06T08:29:01Z</time>
      </trkpt>
      <trkpt lat="59.952441" lon="17.7203107">
        <ele>44.8386</ele>
        <time>2014-07-06T08:29:02Z</time>
      </trkpt>
      <trkpt lat="59.9524423" lon="17.7203735">
        <ele>45.3192</ele>
        <time>2014-07-06T08:29:03Z</time>
      </trkpt>
      <trkpt lat="59.9524454" lon="17.7204433">
        <ele>46.2806</ele>
        <time>2014-07-06T08:29:04Z</time>
      </trkpt>
      <trkpt lat="59.9524457" lon="17.7205108">
        <ele>46.7612</ele>
        <time>2014-07-06T08:29:05Z</time>
      </trkpt>
      <trkpt lat="59.9524492" lon="17.7205785">
        <ele>47.7225</ele>
        <time>2014-07-06T08:29:06Z</time>
      </trkpt>
      <trkpt lat="59.9524517" lon="17.7206386">
        <ele>48.684</ele>
        <time>2014-07-06T08:29:07Z</time>
      </trkpt>
      <trkpt lat="59.9524512" lon="17.7206931">
        <ele>48.684</ele>
        <time>2014-07-06T08:29:08Z</time>
      </trkpt>
      <trkpt lat="59.9524529" lon="17.7207439">
        <ele>48.684</ele>
        <time>2014-07-06T08:29:09Z</time>
      </trkpt>
      <trkpt lat="59.952456" lon="17.7207977">
        <ele>49.1646</ele>
        <time>2014-07-06T08:29:10Z</time>
      </trkpt>
      <trkpt lat="59.952459" lon="17.7208604">
        <ele>49.6453</ele>
        <time>2014-07-06T08:29:11Z</time>
      </trkpt>
      <trkpt lat="59.9524607" lon="17.7209147">
        <ele>50.126</ele>
        <time>2014-07-06T08:29:12Z</time>
      </trkpt>
      <trkpt lat="59.9524609" lon="17.720968">
        <ele>50.126</ele>
        <time>2014-07-06T08:29:13Z</time>
      </trkpt>
      <trkpt lat="59.9524628" lon="17.721023">
        <ele>50.6066</ele>
        <time>2014-07-06T08:29:14Z</time>
      </trkpt>
      <trkpt lat="59.9524672" lon="17.7210774">
        <ele>51.5679</ele>
        <time>2014-07-06T08:29:15Z</time>
      </trkpt>
      <trkpt lat="59.9524661" lon="17.7211311">
        <ele>51.5679</ele>
        <time>2014-07-06T08:29:16Z</time>
      </trkpt>
      <trkpt lat="59.95247" lon="17.7211857">
        <ele>51.5679</ele>
        <time>2014-07-06T08:29:17Z</time>
      </trkpt>
      <trkpt lat="59.9524704" lon="17.7212438">
        <ele>51.5679</ele>
        <time>2014-07-06T08:29:18Z</time>
      </trkpt>
      <trkpt lat="59.9524711" lon="17.7213025">
        <ele>51.0872</ele>
        <time>2014-07-06T08:29:19Z</time>
      </trkpt>
      <trkpt lat="59.9524679" lon="17.7213618">
        <ele>50.6066</ele>
        <time>2014-07-06T08:29:20Z</time>
      </trkpt>
      <trkpt lat="59.9524694" lon="17.7214281">
        <ele>50.6066</ele>
        <time>2014-07-06T08:29:21Z</time>
      </trkpt>
      <trkpt lat="59.9524713" lon="17.7214866">
        <ele>51.0872</ele>
        <time>2014-07-06T08:29:22Z</time>
      </trkpt>
      <trkpt lat="59.952473" lon="17.721544">
        <ele>51.5679</ele>
        <time>2014-07-06T08:29:23Z</time>
      </trkpt>
      <trkpt lat="59.9524797" lon="17.7216003">
        <ele>51.5679</ele>
        <time>2014-07-06T08:29:24Z</time>
      </trkpt>
      <trkpt lat="59.9524798" lon="17.7216529">
        <ele>52.5292</ele>
        <time>2014-07-06T08:29:25Z</time>
      </trkpt>
      <trkpt lat="59.9524694" lon="17.7217103">
        <ele>53.0098</ele>
        <time>2014-07-06T08:29:26Z</time>
      </trkpt>
      <trkpt lat="59.9524589" lon="17.7217654">
        <ele>53.4905</ele>
        <time>2014-07-06T08:29:27Z</time>
      </trkpt>
      <trkpt lat="59.9524523" lon="17.7218226">
        <ele>53.9712</ele>
        <time>2014-07-06T08:29:28Z</time>
      </trkpt>
      <trkpt lat="59.9524456" lon="17.7218858">
        <ele>54.4518</ele>
        <time>2014-07-06T08:29:29Z</time>
      </trkpt>
      <trkpt lat="59.952455" lon="17.7219491">
        <ele>54.9324</ele>
        <time>2014-07-06T08:29:30Z</time>
      </trkpt>
      <trkpt lat="59.9524666" lon="17.7220066">
        <ele>54.4518</ele>
        <time>2014-07-06T08:29:31Z</time>
      </trkpt>
      <trkpt lat="59.9524697" lon="17.7220687">
        <ele>54.4518</ele>
        <time>2014-07-06T08:29:32Z</time>
      </trkpt>
      <trkpt lat="59.9524694" lon="17.7221253">
        <ele>54.4518</ele>
        <time>2014-07-06T08:29:33Z</time>
      </trkpt>
      <trkpt lat="59.9524698" lon="17.7221715">
        <ele>53.9712</ele>
        <time>2014-07-06T08:29:34Z</time>
      </trkpt>
      <trkpt lat="59.9524642" lon="17.7222144">
        <ele>53.4905</ele>
        <time>2014-07-06T08:29:35Z</time>
      </trkpt>
      <trkpt lat="59.9524544" lon="17.7222579">
        <ele>52.5292</ele>
        <time>2014-07-06T08:29:36Z</time>
      </trkpt>
      <trkpt lat="59.9524493" lon="17.7223087">
        <ele>52.0486</ele>
        <time>2014-07-06T08:29:37Z</time>
      </trkpt>
      <trkpt lat="59.9524393" lon="17.7223563">
        <ele>51.0872</ele>
        <time>2014-07-06T08:29:38Z</time>
      </trkpt>
      <trkpt lat="59.9524317" lon="17.7224062">
        <ele>51.0872</ele>
        <time>2014-07-06T08:29:39Z</time>
      </trkpt>
      <trkpt lat="59.9524243" lon="17.7224535">
        <ele>50.6066</ele>
        <time>2014-07-06T08:29:40Z</time>
      </trkpt>
      <trkpt lat="59.9524176" lon="17.7225045">
        <ele>50.126</ele>
        <time>2014-07-06T08:29:41Z</time>
      </trkpt>
      <trkpt lat="59.9524135" lon="17.722562">
        <ele>50.126</ele>
        <time>2014-07-06T08:29:42Z</time>
      </trkpt>
      <trkpt lat="59.9524082" lon="17.7226137">
        <ele>50.126</ele>
        <time>2014-07-06T08:29:43Z</time>
      </trkpt>
      <trkpt lat="59.9524055" lon="17.7226674">
        <ele>49.6453</ele>
        <time>2014-07-06T08:29:44Z</time>
      </trkpt>
      <trkpt lat="59.9524079" lon="17.7227251">
        <ele>49.1646</ele>
        <time>2014-07-06T08:29:45Z</time>
      </trkpt>
      <trkpt lat="59.95243" lon="17.7227733">
        <ele>51.0872</ele>
        <time>2014-07-06T08:29:46Z</time>
      </trkpt>
      <trkpt lat="59.9524413" lon="17.7228187">
        <ele>50.126</ele>
        <time>2014-07-06T08:29:47Z</time>
      </trkpt>
      <trkpt lat="59.9524585" lon="17.7228719">
        <ele>51.5679</ele>
        <time>2014-07-06T08:29:48Z</time>
      </trkpt>
      <trkpt lat="59.95247" lon="17.7229266">
        <ele>51.5679</ele>
        <time>2014-07-06T08:29:49Z</time>
      </trkpt>
      <trkpt lat="59.9524834" lon="17.7229809">
        <ele>53.4905</ele>
        <time>2014-07-06T08:29:50Z</time>
      </trkpt>
      <trkpt lat="59.9524954" lon="17.7230322">
        <ele>54.4518</ele>
        <time>2014-07-06T08:29:51Z</time>
      </trkpt>
      <trkpt lat="59.9525041" lon="17.7230935">
        <ele>55.4131</ele>
        <time>2014-07-06T08:29:52Z</time>
      </trkpt>
      <trkpt lat="59.9525072" lon="17.7231544">
        <ele>54.4518</ele>
        <time>2014-07-06T08:29:53Z</time>
      </trkpt>
      <trkpt lat="59.9525172" lon="17.7232297">
        <ele>54.9324</ele>
        <time>2014-07-06T08:29:54Z</time>
      </trkpt>
      <trkpt lat="59.9525286" lon="17.7232865">
        <ele>54.9324</ele>
        <time>2014-07-06T08:29:55Z</time>
      </trkpt>
      <trkpt lat="59.9525419" lon="17.7233416">
        <ele>55.8938</ele>
        <time>2014-07-06T08:29:56Z</time>
      </trkpt>
      <trkpt lat="59.9525532" lon="17.7233981">
        <ele>56.3745</ele>
        <time>2014-07-06T08:29:57Z</time>
      </trkpt>
      <trkpt lat="59.952577" lon="17.7234505">
        <ele>57.3358</ele>
        <time>2014-07-06T08:29:58Z</time>
      </trkpt>
      <trkpt lat="59.9525974" lon="17.7234991">
        <ele>56.8551</ele>
        <time>2014-07-06T08:29:59Z</time>
      </trkpt>
      <trkpt lat="59.9526273" lon="17.7235522">
        <ele>57.8165</ele>
        <time>2014-07-06T08:30:00Z</time>
      </trkpt>
      <trkpt lat="59.9526507" lon="17.7236025">
        <ele>57.8165</ele>
        <time>2014-07-06T08:30:01Z</time>
      </trkpt>
      <trkpt lat="59.952677" lon="17.7236684">
        <ele>58.2971</ele>
        <time>2014-07-06T08:30:02Z</time>
      </trkpt>
      <trkpt lat="59.9527078" lon="17.7237349">
        <ele>58.2971</ele>
        <time>2014-07-06T08:30:03Z</time>
      </trkpt>
      <trkpt lat="59.9527275" lon="17.7237854">
        <ele>58.7777</ele>
        <time>2014-07-06T08:30:04Z</time>
      </trkpt>
      <trkpt lat="59.9527363" lon="17.7238376">
        <ele>58.7777</ele>
        <time>2014-07-06T08:30:05Z</time>
      </trkpt>
      <trkpt lat="59.9527453" lon="17.7238974">
        <ele>59.2584</ele>
        <time>2014-07-06T08:30:06Z</time>
      </trkpt>
      <trkpt lat="59.9527512" lon="17.7239586">
        <ele>60.2197</ele>
        <time>2014-07-06T08:30:07Z</time>
      </trkpt>
      <trkpt lat="59.9527476" lon="17.7240207">
        <ele>60.2197</ele>
        <time>2014-07-06T08:30:08Z</time>
      </trkpt>
      <trkpt lat="59.9527389" lon="17.7240827">
        <ele>60.2197</ele>
        <time>2014-07-06T08:30:09Z</time>
      </trkpt>
      <trkpt lat="59.9527273" lon="17.724142">
        <ele>60.2197</ele>
        <time>2014-07-06T08:30:10Z</time>
      </trkpt>
      <trkpt lat="59.9527149" lon="17.7242029">
        <ele>60.2197</ele>
        <time>2014-07-06T08:30:11Z</time>
      </trkpt>
      <trkpt lat="59.9527005" lon="17.7242599">
        <ele>60.2197</ele>
        <time>2014-07-06T08:30:12Z</time>
      </trkpt>
      <trkpt lat="59.9526826" lon="17.7243116">
        <ele>60.7003</ele>
        <time>2014-07-06T08:30:13Z</time>
      </trkpt>
      <trkpt lat="59.9526638" lon="17.7243564">
        <ele>60.7003</ele>
        <time>2014-07-06T08:30:14Z</time>
      </trkpt>
      <trkpt lat="59.9526463" lon="17.7244019">
        <ele>60.2197</ele>
        <time>2014-07-06T08:30:15Z</time>
      </trkpt>
      <trkpt lat="59.9526279" lon="17.7244527">
        <ele>60.7003</ele>
        <time>2014-07-06T08:30:16Z</time>
      </trkpt>
      <trkpt lat="59.9526134" lon="17.7244956">
        <ele>60.7003</ele>
        <time>2014-07-06T08:30:17Z</time>
      </trkpt>
      <trkpt lat="59.9525945" lon="17.7245444">
        <ele>59.7391</ele>
        <time>2014-07-06T08:30:18Z</time>
      </trkpt>
      <trkpt lat="59.9525764" lon="17.7245936">
        <ele>59.7391</ele>
        <time>2014-07-06T08:30:19Z</time>
      </trkpt>
      <trkpt lat="59.9525564" lon="17.7246325">
        <ele>60.2197</ele>
        <time>2014-07-06T08:30:20Z</time>
      </trkpt>
      <trkpt lat="59.9525321" lon="17.7246693">
        <ele>60.2197</ele>
        <time>2014-07-06T08:30:21Z</time>
      </trkpt>
      <trkpt lat="59.9525104" lon="17.7247077">
        <ele>59.7391</ele>
        <time>2014-07-06T08:30:22Z</time>
      </trkpt>
      <trkpt lat="59.9524897" lon="17.7247382">
        <ele>58.7777</ele>
        <time>2014-07-06T08:30:23Z</time>
      </trkpt>
      <trkpt lat="59.9524557" lon="17.7247578">
        <ele>55.8938</ele>
        <time>2014-07-06T08:30:24Z</time>
      </trkpt>
      <trkpt lat="59.952427" lon="17.7247828">
        <ele>54.4518</ele>
        <time>2014-07-06T08:30:25Z</time>
      </trkpt>
      <trkpt lat="59.9524021" lon="17.7248146">
        <ele>53.4905</ele>
        <time>2014-07-06T08:30:26Z</time>
      </trkpt>
      <trkpt lat="59.9523785" lon="17.7248484">
        <ele>52.5292</ele>
        <time>2014-07-06T08:30:27Z</time>
      </trkpt>
      <trkpt lat="59.9523581" lon="17.7248911">
        <ele>53.0098</ele>
        <time>2014-07-06T08:30:28Z</time>
      </trkpt>
      <trkpt lat="59.9523382" lon="17.7249398">
        <ele>53.0098</ele>
        <time>2014-07-06T08:30:29Z</time>
      </trkpt>
      <trkpt lat="59.9523164" lon="17.7249878">
        <ele>53.0098</ele>
        <time>2014-07-06T08:30:30Z</time>
      </trkpt>
      <trkpt lat="59.9522948" lon="17.7250294">
        <ele>53.4905</ele>
        <time>2014-07-06T08:30:31Z</time>
      </trkpt>
      <trkpt lat="59.9522778" lon="17.7250713">
        <ele>53.4905</ele>
        <time>2014-07-06T08:30:32Z</time>
      </trkpt>
      <trkpt lat="59.9522622" lon="17.725111">
        <ele>53.0098</ele>
        <time>2014-07-06T08:30:33Z</time>
      </trkpt>
      <trkpt lat="59.9522431" lon="17.7251526">
        <ele>53.4905</ele>
        <time>2014-07-06T08:30:34Z</time>
      </trkpt>
      <trkpt lat="59.9522255" lon="17.7251938">
        <ele>53.4905</ele>
        <time>2014-07-06T08:30:35Z</time>
      </trkpt>
      <trkpt lat="59.9522114" lon="17.7252361">
        <ele>53.9712</ele>
        <time>2014-07-06T08:30:36Z</time>
      </trkpt>
      <trkpt lat="59.9521943" lon="17.7252769">
        <ele>54.4518</ele>
        <time>2014-07-06T08:30:37Z</time>
      </trkpt>
      <trkpt lat="59.9521734" lon="17.7253136">
        <ele>54.4518</ele>
        <time>2014-07-06T08:30:38Z</time>
      </trkpt>
      <trkpt lat="59.9521545" lon="17.7253519">
        <ele>54.9324</ele>
        <time>2014-07-06T08:30:39Z</time>
      </trkpt>
      <trkpt lat="59.9521304" lon="17.7253908">
        <ele>54.4518</ele>
        <time>2014-07-06T08:30:40Z</time>
      </trkpt>
      <trkpt lat="59.9521104" lon="17.7254245">
        <ele>54.4518</ele>
        <time>2014-07-06T08:30:41Z</time>
      </trkpt>
      <trkpt lat="59.9520917" lon="17.7254659">
        <ele>54.4518</ele>
        <time>2014-07-06T08:30:42Z</time>
      </trkpt>
      <trkpt lat="59.952068" lon="17.7255078">
        <ele>53.9712</ele>
        <time>2014-07-06T08:30:43Z</time>
      </trkpt>
      <trkpt lat="59.9520475" lon="17.725544">
        <ele>53.0098</ele>
        <time>2014-07-06T08:30:44Z</time>
      </trkpt>
      <trkpt lat="59.9520242" lon="17.7255783">
        <ele>52.0486</ele>
        <time>2014-07-06T08:30:45Z</time>
      </trkpt>
      <trkpt lat="59.9520047" lon="17.725612">
        <ele>52.0486</ele>
        <time>2014-07-06T08:30:46Z</time>
      </trkpt>
      <trkpt lat="59.9519881" lon="17.7256417">
        <ele>52.0486</ele>
        <time>2014-07-06T08:30:47Z</time>
      </trkpt>
      <trkpt lat="59.9519705" lon="17.7256724">
        <ele>51.5679</ele>
        <time>2014-07-06T08:30:48Z</time>
      </trkpt>
      <trkpt lat="59.9519522" lon="17.7257068">
        <ele>51.5679</ele>
        <time>2014-07-06T08:30:49Z</time>
      </trkpt>
      <trkpt lat="59.951933" lon="17.7257419">
        <ele>51.5679</ele>
        <time>2014-07-06T08:30:50Z</time>
      </trkpt>
      <trkpt lat="59.9519144" lon="17.72578">
        <ele>51.5679</ele>
        <time>2014-07-06T08:30:51Z</time>
      </trkpt>
      <trkpt lat="59.9518949" lon="17.7258149">
        <ele>51.5679</ele>
        <time>2014-07-06T08:30:52Z</time>
      </trkpt>
      <trkpt lat="59.9518763" lon="17.7258385">
        <ele>51.0872</ele>
        <time>2014-07-06T08:30:53Z</time>
      </trkpt>
      <trkpt lat="59.9518587" lon="17.7258581">
        <ele>51.0872</ele>
        <time>2014-07-06T08:30:54Z</time>
      </trkpt>
      <trkpt lat="59.9518373" lon="17.7258765">
        <ele>51.0872</ele>
        <time>2014-07-06T08:30:55Z</time>
      </trkpt>
      <trkpt lat="59.951815" lon="17.7258983">
        <ele>51.0872</ele>
        <time>2014-07-06T08:30:56Z</time>
      </trkpt>
      <trkpt lat="59.9517939" lon="17.7259289">
        <ele>51.0872</ele>
        <time>2014-07-06T08:30:57Z</time>
      </trkpt>
      <trkpt lat="59.9517701" lon="17.7259692">
        <ele>51.0872</ele>
        <time>2014-07-06T08:30:58Z</time>
      </trkpt>
      <trkpt lat="59.9517445" lon="17.7260089">
        <ele>50.6066</ele>
        <time>2014-07-06T08:30:59Z</time>
      </trkpt>
      <trkpt lat="59.9517203" lon="17.726047">
        <ele>50.6066</ele>
        <time>2014-07-06T08:31:00Z</time>
      </trkpt>
      <trkpt lat="59.9516974" lon="17.7260854">
        <ele>50.6066</ele>
        <time>2014-07-06T08:31:01Z</time>
      </trkpt>
      <trkpt lat="59.9516784" lon="17.7261223">
        <ele>50.126</ele>
        <time>2014-07-06T08:31:02Z</time>
      </trkpt>
      <trkpt lat="59.9516608" lon="17.72616">
        <ele>50.126</ele>
        <time>2014-07-06T08:31:03Z</time>
      </trkpt>
      <trkpt lat="59.9516422" lon="17.7261957">
        <ele>50.126</ele>
        <time>2014-07-06T08:31:04Z</time>
      </trkpt>
      <trkpt lat="59.9516264" lon="17.7262268">
        <ele>50.6066</ele>
        <time>2014-07-06T08:31:05Z</time>
      </trkpt>
      <trkpt lat="59.9516148" lon="17.7262647">
        <ele>51.0872</ele>
        <time>2014-07-06T08:31:06Z</time>
      </trkpt>
      <trkpt lat="59.9515981" lon="17.7263024">
        <ele>50.6066</ele>
        <time>2014-07-06T08:31:07Z</time>
      </trkpt>
      <trkpt lat="59.9515844" lon="17.7263408">
        <ele>51.5679</ele>
        <time>2014-07-06T08:31:08Z</time>
      </trkpt>
      <trkpt lat="59.9515744" lon="17.7263821">
        <ele>52.0486</ele>
        <time>2014-07-06T08:31:09Z</time>
      </trkpt>
      <trkpt lat="59.9515624" lon="17.7264243">
        <ele>52.5292</ele>
        <time>2014-07-06T08:31:10Z</time>
      </trkpt>
      <trkpt lat="59.9515464" lon="17.7264718">
        <ele>52.5292</ele>
        <time>2014-07-06T08:31:11Z</time>
      </trkpt>
      <trkpt lat="59.9515297" lon="17.7265237">
        <ele>53.0098</ele>
        <time>2014-07-06T08:31:12Z</time>
      </trkpt>
      <trkpt lat="59.9515137" lon="17.7265733">
        <ele>53.0098</ele>
        <time>2014-07-06T08:31:13Z</time>
      </trkpt>
      <trkpt lat="59.9515008" lon="17.7266171">
        <ele>53.0098</ele>
        <time>2014-07-06T08:31:14Z</time>
      </trkpt>
      <trkpt lat="59.9514881" lon="17.7266613">
        <ele>53.0098</ele>
        <time>2014-07-06T08:31:15Z</time>
      </trkpt>
      <trkpt lat="59.9514803" lon="17.7267055">
        <ele>53.0098</ele>
        <time>2014-07-06T08:31:16Z</time>
      </trkpt>
      <trkpt lat="59.9514758" lon="17.7267577">
        <ele>53.4905</ele>
        <time>2014-07-06T08:31:17Z</time>
      </trkpt>
      <trkpt lat="59.9514617" lon="17.7268071">
        <ele>53.4905</ele>
        <time>2014-07-06T08:31:18Z</time>
      </trkpt>
      <trkpt lat="59.9514453" lon="17.72686">
        <ele>53.4905</ele>
        <time>2014-07-06T08:31:19Z</time>
      </trkpt>
      <trkpt lat="59.9514422" lon="17.7269127">
        <ele>52.5292</ele>
        <time>2014-07-06T08:31:20Z</time>
      </trkpt>
      <trkpt lat="59.9514473" lon="17.7269602">
        <ele>52.0486</ele>
        <time>2014-07-06T08:31:21Z</time>
      </trkpt>
      <trkpt lat="59.9514519" lon="17.7270104">
        <ele>52.0486</ele>
        <time>2014-07-06T08:31:22Z</time>
      </trkpt>
      <trkpt lat="59.9514536" lon="17.7270619">
        <ele>51.5679</ele>
        <time>2014-07-06T08:31:23Z</time>
      </trkpt>
      <trkpt lat="59.9514555" lon="17.7271109">
        <ele>51.5679</ele>
        <time>2014-07-06T08:31:24Z</time>
      </trkpt>
      <trkpt lat="59.9514562" lon="17.7271627">
        <ele>51.0872</ele>
        <time>2014-07-06T08:31:25Z</time>
      </trkpt>
      <trkpt lat="59.951457" lon="17.7272184">
        <ele>51.0872</ele>
        <time>2014-07-06T08:31:26Z</time>
      </trkpt>
      <trkpt lat="59.9514552" lon="17.7272741">
        <ele>50.6066</ele>
        <time>2014-07-06T08:31:27Z</time>
      </trkpt>
      <trkpt lat="59.9514528" lon="17.7273276">
        <ele>50.6066</ele>
        <time>2014-07-06T08:31:28Z</time>
      </trkpt>
      <trkpt lat="59.95145" lon="17.7273793">
        <ele>50.6066</ele>
        <time>2014-07-06T08:31:29Z</time>
      </trkpt>
      <trkpt lat="59.9514485" lon="17.7274326">
        <ele>50.126</ele>
        <time>2014-07-06T08:31:30Z</time>
      </trkpt>
      <trkpt lat="59.9514479" lon="17.7274842">
        <ele>49.6453</ele>
        <time>2014-07-06T08:31:31Z</time>
      </trkpt>
      <trkpt lat="59.9514536" lon="17.7275364">
        <ele>49.1646</ele>
        <time>2014-07-06T08:31:32Z</time>
      </trkpt>
      <trkpt lat="59.9514638" lon="17.7275925">
        <ele>48.684</ele>
        <time>2014-07-06T08:31:33Z</time>
      </trkpt>
      <trkpt lat="59.9514713" lon="17.7276437">
        <ele>48.2034</ele>
        <time>2014-07-06T08:31:34Z</time>
      </trkpt>
      <trkpt lat="59.9514805" lon="17.7276913">
        <ele>48.684</ele>
        <time>2014-07-06T08:31:35Z</time>
      </trkpt>
      <trkpt lat="59.9514919" lon="17.7277357">
        <ele>47.7225</ele>
        <time>2014-07-06T08:31:36Z</time>
      </trkpt>
      <trkpt lat="59.9515107" lon="17.7277741">
        <ele>47.7225</ele>
        <time>2014-07-06T08:31:37Z</time>
      </trkpt>
      <trkpt lat="59.9515282" lon="17.7278018">
        <ele>47.7225</ele>
        <time>2014-07-06T08:31:38Z</time>
      </trkpt>
      <trkpt lat="59.9515494" lon="17.7278271">
        <ele>47.7225</ele>
        <time>2014-07-06T08:31:39Z</time>
      </trkpt>
      <trkpt lat="59.9515732" lon="17.7278419">
        <ele>47.2418</ele>
        <time>2014-07-06T08:31:40Z</time>
      </trkpt>
      <trkpt lat="59.9515997" lon="17.7278529">
        <ele>47.2418</ele>
        <time>2014-07-06T08:31:41Z</time>
      </trkpt>
      <trkpt lat="59.9516277" lon="17.7278626">
        <ele>47.2418</ele>
        <time>2014-07-06T08:31:42Z</time>
      </trkpt>
      <trkpt lat="59.9516534" lon="17.7278711">
        <ele>46.2806</ele>
        <time>2014-07-06T08:31:43Z</time>
      </trkpt>
      <trkpt lat="59.9516834" lon="17.7278783">
        <ele>46.7612</ele>
        <time>2014-07-06T08:31:44Z</time>
      </trkpt>
      <trkpt lat="59.9517198" lon="17.7278836">
        <ele>48.2034</ele>
        <time>2014-07-06T08:31:45Z</time>
      </trkpt>
      <trkpt lat="59.9517483" lon="17.7278819">
        <ele>49.1646</ele>
        <time>2014-07-06T08:31:46Z</time>
      </trkpt>
      <trkpt lat="59.9517769" lon="17.7278738">
        <ele>50.126</ele>
        <time>2014-07-06T08:31:47Z</time>
      </trkpt>
      <trkpt lat="59.9518021" lon="17.7278603">
        <ele>50.126</ele>
        <time>2014-07-06T08:31:48Z</time>
      </trkpt>
      <trkpt lat="59.9518248" lon="17.7278501">
        <ele>50.126</ele>
        <time>2014-07-06T08:31:49Z</time>
      </trkpt>
      <trkpt lat="59.9518455" lon="17.7278305">
        <ele>50.126</ele>
        <time>2014-07-06T08:31:50Z</time>
      </trkpt>
      <trkpt lat="59.9518732" lon="17.7278071">
        <ele>51.5679</ele>
        <time>2014-07-06T08:31:51Z</time>
      </trkpt>
      <trkpt lat="59.951897" lon="17.7277789">
        <ele>52.0486</ele>
        <time>2014-07-06T08:31:52Z</time>
      </trkpt>
      <trkpt lat="59.951922" lon="17.7277478">
        <ele>53.0098</ele>
        <time>2014-07-06T08:31:53Z</time>
      </trkpt>
      <trkpt lat="59.9519409" lon="17.7277064">
        <ele>53.0098</ele>
        <time>2014-07-06T08:31:54Z</time>
      </trkpt>
      <trkpt lat="59.9519504" lon="17.7276602">
        <ele>53.0098</ele>
        <time>2014-07-06T08:31:55Z</time>
      </trkpt>
      <trkpt lat="59.9519597" lon="17.7276023">
        <ele>53.0098</ele>
        <time>2014-07-06T08:31:56Z</time>
      </trkpt>
      <trkpt lat="59.9519655" lon="17.7275386">
        <ele>52.5292</ele>
        <time>2014-07-06T08:31:57Z</time>
      </trkpt>
      <trkpt lat="59.951973" lon="17.7274794">
        <ele>52.5292</ele>
        <time>2014-07-06T08:31:58Z</time>
      </trkpt>
      <trkpt lat="59.9519859" lon="17.7273556">
        <ele>52.0486</ele>
        <time>2014-07-06T08:32:00Z</time>
      </trkpt>
      <trkpt lat="59.9519892" lon="17.7273114">
        <ele>51.5679</ele>
        <time>2014-07-06T08:32:01Z</time>
      </trkpt>
      <trkpt lat="59.951999" lon="17.7272796">
        <ele>52.0486</ele>
        <time>2014-07-06T08:32:02Z</time>
      </trkpt>
      <trkpt lat="59.9520135" lon="17.7272392">
        <ele>52.0486</ele>
        <time>2014-07-06T08:32:03Z</time>
      </trkpt>
      <trkpt lat="59.9520316" lon="17.7271931">
        <ele>52.0486</ele>
        <time>2014-07-06T08:32:04Z</time>
      </trkpt>
      <trkpt lat="59.952046" lon="17.7271456">
        <ele>52.0486</ele>
        <time>2014-07-06T08:32:05Z</time>
      </trkpt>
      <trkpt lat="59.9520571" lon="17.7270978">
        <ele>51.0872</ele>
        <time>2014-07-06T08:32:06Z</time>
      </trkpt>
      <trkpt lat="59.9520652" lon="17.727048">
        <ele>50.6066</ele>
        <time>2014-07-06T08:32:07Z</time>
      </trkpt>
      <trkpt lat="59.9520726" lon="17.7270039">
        <ele>50.6066</ele>
        <time>2014-07-06T08:32:08Z</time>
      </trkpt>
      <trkpt lat="59.9520791" lon="17.726963">
        <ele>50.126</ele>
        <time>2014-07-06T08:32:09Z</time>
      </trkpt>
      <trkpt lat="59.952088" lon="17.7269162">
        <ele>50.126</ele>
        <time>2014-07-06T08:32:10Z</time>
      </trkpt>
      <trkpt lat="59.9521009" lon="17.7268635">
        <ele>49.6453</ele>
        <time>2014-07-06T08:32:11Z</time>
      </trkpt>
      <trkpt lat="59.9521155" lon="17.7268074">
        <ele>49.6453</ele>
        <time>2014-07-06T08:32:12Z</time>
      </trkpt>
      <trkpt lat="59.9521302" lon="17.7267444">
        <ele>49.6453</ele>
        <time>2014-07-06T08:32:13Z</time>
      </trkpt>
      <trkpt lat="59.9521456" lon="17.7266916">
        <ele>49.6453</ele>
        <time>2014-07-06T08:32:14Z</time>
      </trkpt>
      <trkpt lat="59.9521594" lon="17.7266423">
        <ele>49.1646</ele>
        <time>2014-07-06T08:32:15Z</time>
      </trkpt>
      <trkpt lat="59.952174" lon="17.7265929">
        <ele>49.1646</ele>
        <time>2014-07-06T08:32:16Z</time>
      </trkpt>
      <trkpt lat="59.9521882" lon="17.7265435">
        <ele>48.684</ele>
        <time>2014-07-06T08:32:17Z</time>
      </trkpt>
      <trkpt lat="59.9522012" lon="17.7264906">
        <ele>48.684</ele>
        <time>2014-07-06T08:32:18Z</time>
      </trkpt>
      <trkpt lat="59.9522145" lon="17.7264342">
        <ele>48.684</ele>
        <time>2014-07-06T08:32:19Z</time>
      </trkpt>
      <trkpt lat="59.9522245" lon="17.7263744">
        <ele>48.684</ele>
        <time>2014-07-06T08:32:20Z</time>
      </trkpt>
      <trkpt lat="59.9522341" lon="17.7263272">
        <ele>48.684</ele>
        <time>2014-07-06T08:32:21Z</time>
      </trkpt>
      <trkpt lat="59.9522487" lon="17.7262808">
        <ele>48.2034</ele>
        <time>2014-07-06T08:32:22Z</time>
      </trkpt>
      <trkpt lat="59.9522679" lon="17.7262369">
        <ele>47.7225</ele>
        <time>2014-07-06T08:32:23Z</time>
      </trkpt>
      <trkpt lat="59.9522877" lon="17.7262006">
        <ele>47.7225</ele>
        <time>2014-07-06T08:32:24Z</time>
      </trkpt>
      <trkpt lat="59.9523081" lon="17.7261652">
        <ele>47.7225</ele>
        <time>2014-07-06T08:32:25Z</time>
      </trkpt>
      <trkpt lat="59.9523279" lon="17.7261269">
        <ele>47.7225</ele>
        <time>2014-07-06T08:32:26Z</time>
      </trkpt>
      <trkpt lat="59.9523472" lon="17.7260946">
        <ele>47.2418</ele>
        <time>2014-07-06T08:32:27Z</time>
      </trkpt>
      <trkpt lat="59.9523706" lon="17.7260553">
        <ele>47.2418</ele>
        <time>2014-07-06T08:32:28Z</time>
      </trkpt>
      <trkpt lat="59.9523886" lon="17.726014">
        <ele>46.7612</ele>
        <time>2014-07-06T08:32:29Z</time>
      </trkpt>
      <trkpt lat="59.9524081" lon="17.7259668">
        <ele>46.7612</ele>
        <time>2014-07-06T08:32:30Z</time>
      </trkpt>
      <trkpt lat="59.9524324" lon="17.7259216">
        <ele>46.2806</ele>
        <time>2014-07-06T08:32:31Z</time>
      </trkpt>
      <trkpt lat="59.9524583" lon="17.7258814">
        <ele>46.2806</ele>
        <time>2014-07-06T08:32:32Z</time>
      </trkpt>
      <trkpt lat="59.9524844" lon="17.7258394">
        <ele>46.2806</ele>
        <time>2014-07-06T08:32:33Z</time>
      </trkpt>
      <trkpt lat="59.9525093" lon="17.7258001">
        <ele>46.2806</ele>
        <time>2014-07-06T08:32:34Z</time>
      </trkpt>
      <trkpt lat="59.9525322" lon="17.7257657">
        <ele>46.2806</ele>
        <time>2014-07-06T08:32:35Z</time>
      </trkpt>
      <trkpt lat="59.9525542" lon="17.7257351">
        <ele>46.2806</ele>
        <time>2014-07-06T08:32:36Z</time>
      </trkpt>
      <trkpt lat="59.9525756" lon="17.7257014">
        <ele>45.7999</ele>
        <time>2014-07-06T08:32:37Z</time>
      </trkpt>
      <trkpt lat="59.9525987" lon="17.7256634">
        <ele>46.2806</ele>
        <time>2014-07-06T08:32:38Z</time>
      </trkpt>
      <trkpt lat="59.9526196" lon="17.7256296">
        <ele>46.2806</ele>
        <time>2014-07-06T08:32:39Z</time>
      </trkpt>
      <trkpt lat="59.9526399" lon="17.7255918">
        <ele>46.2806</ele>
        <time>2014-07-06T08:32:40Z</time>
      </trkpt>
      <trkpt lat="59.9526601" lon="17.725558">
        <ele>46.2806</ele>
        <time>2014-07-06T08:32:41Z</time>
      </trkpt>
      <trkpt lat="59.952681" lon="17.7255295">
        <ele>46.7612</ele>
        <time>2014-07-06T08:32:42Z</time>
      </trkpt>
      <trkpt lat="59.9527012" lon="17.725497">
        <ele>46.7612</ele>
        <time>2014-07-06T08:32:43Z</time>
      </trkpt>
      <trkpt lat="59.9527178" lon="17.7254577">
        <ele>46.7612</ele>
        <time>2014-07-06T08:32:44Z</time>
      </trkpt>
      <trkpt lat="59.9527351" lon="17.7254243">
        <ele>46.7612</ele>
        <time>2014-07-06T08:32:45Z</time>
      </trkpt>
      <trkpt lat="59.9527521" lon="17.7253851">
        <ele>46.7612</ele>
        <time>2014-07-06T08:32:46Z</time>
      </trkpt>
      <trkpt lat="59.9527705" lon="17.7253471">
        <ele>46.7612</ele>
        <time>2014-07-06T08:32:47Z</time>
      </trkpt>
      <trkpt lat="59.9527895" lon="17.7253064">
        <ele>47.2418</ele>
        <time>2014-07-06T08:32:48Z</time>
      </trkpt>
      <trkpt lat="59.9528085" lon="17.7252645">
        <ele>47.2418</ele>
        <time>2014-07-06T08:32:49Z</time>
      </trkpt>
      <trkpt lat="59.9528272" lon="17.7252199">
        <ele>47.7225</ele>
        <time>2014-07-06T08:32:50Z</time>
      </trkpt>
      <trkpt lat="59.952846" lon="17.7251803">
        <ele>48.2034</ele>
        <time>2014-07-06T08:32:51Z</time>
      </trkpt>
      <trkpt lat="59.9528608" lon="17.7251355">
        <ele>48.684</ele>
        <time>2014-07-06T08:32:52Z</time>
      </trkpt>
      <trkpt lat="59.9528786" lon="17.7250951">
        <ele>48.684</ele>
        <time>2014-07-06T08:32:53Z</time>
      </trkpt>
      <trkpt lat="59.9528988" lon="17.7250546">
        <ele>48.684</ele>
        <time>2014-07-06T08:32:54Z</time>
      </trkpt>
      <trkpt lat="59.952918" lon="17.7250115">
        <ele>48.684</ele>
        <time>2014-07-06T08:32:55Z</time>
      </trkpt>
      <trkpt lat="59.9529356" lon="17.7249684">
        <ele>48.684</ele>
        <time>2014-07-06T08:32:56Z</time>
      </trkpt>
      <trkpt lat="59.9529522" lon="17.7249282">
        <ele>49.1646</ele>
        <time>2014-07-06T08:32:57Z</time>
      </trkpt>
      <trkpt lat="59.9529734" lon="17.7248898">
        <ele>49.6453</ele>
        <time>2014-07-06T08:32:58Z</time>
      </trkpt>
      <trkpt lat="59.952991" lon="17.7248599">
        <ele>49.6453</ele>
        <time>2014-07-06T08:32:59Z</time>
      </trkpt>
      <trkpt lat="59.9530101" lon="17.7248298">
        <ele>49.6453</ele>
        <time>2014-07-06T08:33:00Z</time>
      </trkpt>
      <trkpt lat="59.9530335" lon="17.7247996">
        <ele>49.6453</ele>
        <time>2014-07-06T08:33:01Z</time>
      </trkpt>
      <trkpt lat="59.9530553" lon="17.724777">
        <ele>49.6453</ele>
        <time>2014-07-06T08:33:02Z</time>
      </trkpt>
      <trkpt lat="59.9530769" lon="17.7247556">
        <ele>49.6453</ele>
        <time>2014-07-06T08:33:03Z</time>
      </trkpt>
      <trkpt lat="59.9530953" lon="17.7247116">
        <ele>50.126</ele>
        <time>2014-07-06T08:33:04Z</time>
      </trkpt>
      <trkpt lat="59.9531148" lon="17.7246778">
        <ele>50.126</ele>
        <time>2014-07-06T08:33:05Z</time>
      </trkpt>
      <trkpt lat="59.9531335" lon="17.724647">
        <ele>50.6066</ele>
        <time>2014-07-06T08:33:06Z</time>
      </trkpt>
      <trkpt lat="59.9531535" lon="17.7246174">
        <ele>50.6066</ele>
        <time>2014-07-06T08:33:07Z</time>
      </trkpt>
      <trkpt lat="59.9531713" lon="17.7245649">
        <ele>51.5679</ele>
        <time>2014-07-06T08:33:08Z</time>
      </trkpt>
      <trkpt lat="59.9531873" lon="17.7245178">
        <ele>52.0486</ele>
        <time>2014-07-06T08:33:09Z</time>
      </trkpt>
      <trkpt lat="59.9532035" lon="17.7244755">
        <ele>52.5292</ele>
        <time>2014-07-06T08:33:10Z</time>
      </trkpt>
      <trkpt lat="59.9532195" lon="17.724431">
        <ele>53.0098</ele>
        <time>2014-07-06T08:33:11Z</time>
      </trkpt>
      <trkpt lat="59.9532362" lon="17.7243926">
        <ele>53.0098</ele>
        <time>2014-07-06T08:33:12Z</time>
      </trkpt>
      <trkpt lat="59.9532532" lon="17.7243745">
        <ele>53.0098</ele>
        <time>2014-07-06T08:33:13Z</time>
      </trkpt>
      <trkpt lat="59.9532734" lon="17.7243481">
        <ele>53.0098</ele>
        <time>2014-07-06T08:33:14Z</time>
      </trkpt>
      <trkpt lat="59.953293" lon="17.7243181">
        <ele>53.4905</ele>
        <time>2014-07-06T08:33:15Z</time>
      </trkpt>
      <trkpt lat="59.9533149" lon="17.7242879">
        <ele>53.4905</ele>
        <time>2014-07-06T08:33:16Z</time>
      </trkpt>
      <trkpt lat="59.9533386" lon="17.7242564">
        <ele>53.9712</ele>
        <time>2014-07-06T08:33:17Z</time>
      </trkpt>
      <trkpt lat="59.9533567" lon="17.7242201">
        <ele>53.4905</ele>
        <time>2014-07-06T08:33:18Z</time>
      </trkpt>
      <trkpt lat="59.9533795" lon="17.7241817">
        <ele>53.9712</ele>
        <time>2014-07-06T08:33:19Z</time>
      </trkpt>
      <trkpt lat="59.9534065" lon="17.7241438">
        <ele>53.9712</ele>
        <time>2014-07-06T08:33:20Z</time>
      </trkpt>
      <trkpt lat="59.9534288" lon="17.7240973">
        <ele>54.4518</ele>
        <time>2014-07-06T08:33:21Z</time>
      </trkpt>
      <trkpt lat="59.9534557" lon="17.7240687">
        <ele>55.4131</ele>
        <time>2014-07-06T08:33:22Z</time>
      </trkpt>
      <trkpt lat="59.953479" lon="17.7240185">
        <ele>56.3745</ele>
        <time>2014-07-06T08:33:23Z</time>
      </trkpt>
      <trkpt lat="59.9535021" lon="17.7239734">
        <ele>57.8165</ele>
        <time>2014-07-06T08:33:24Z</time>
      </trkpt>
      <trkpt lat="59.9535246" lon="17.7239389">
        <ele>58.7777</ele>
        <time>2014-07-06T08:33:25Z</time>
      </trkpt>
      <trkpt lat="59.9535437" lon="17.7239208">
        <ele>57.8165</ele>
        <time>2014-07-06T08:33:26Z</time>
      </trkpt>
      <trkpt lat="59.9535653" lon="17.7239047">
        <ele>58.2971</ele>
        <time>2014-07-06T08:33:27Z</time>
      </trkpt>
      <trkpt lat="59.9535879" lon="17.7238815">
        <ele>57.8165</ele>
        <time>2014-07-06T08:33:28Z</time>
      </trkpt>
      <trkpt lat="59.9536043" lon="17.723857">
        <ele>57.3358</ele>
        <time>2014-07-06T08:33:29Z</time>
      </trkpt>
      <trkpt lat="59.9536209" lon="17.7238369">
        <ele>56.8551</ele>
        <time>2014-07-06T08:33:30Z</time>
      </trkpt>
      <trkpt lat="59.9536421" lon="17.7238037">
        <ele>56.8551</ele>
        <time>2014-07-06T08:33:31Z</time>
      </trkpt>
      <trkpt lat="59.9536629" lon="17.7237513">
        <ele>57.3358</ele>
        <time>2014-07-06T08:33:32Z</time>
      </trkpt>
      <trkpt lat="59.9536872" lon="17.7237133">
        <ele>57.3358</ele>
        <time>2014-07-06T08:33:33Z</time>
      </trkpt>
      <trkpt lat="59.9537078" lon="17.7236798">
        <ele>57.3358</ele>
        <time>2014-07-06T08:33:34Z</time>
      </trkpt>
      <trkpt lat="59.9537266" lon="17.7236306">
        <ele>57.3358</ele>
        <time>2014-07-06T08:33:35Z</time>
      </trkpt>
      <trkpt lat="59.9537464" lon="17.7235881">
        <ele>57.3358</ele>
        <time>2014-07-06T08:33:36Z</time>
      </trkpt>
      <trkpt lat="59.9537604" lon="17.723543">
        <ele>56.8551</ele>
        <time>2014-07-06T08:33:37Z</time>
      </trkpt>
      <trkpt lat="59.9537772" lon="17.723494">
        <ele>57.8165</ele>
        <time>2014-07-06T08:33:38Z</time>
      </trkpt>
      <trkpt lat="59.9537914" lon="17.7234471">
        <ele>57.8165</ele>
        <time>2014-07-06T08:33:39Z</time>
      </trkpt>
      <trkpt lat="59.9538036" lon="17.7234">
        <ele>58.2971</ele>
        <time>2014-07-06T08:33:40Z</time>
      </trkpt>
      <trkpt lat="59.9538167" lon="17.7233575">
        <ele>57.3358</ele>
        <time>2014-07-06T08:33:41Z</time>
      </trkpt>
      <trkpt lat="59.9538318" lon="17.7233122">
        <ele>57.3358</ele>
        <time>2014-07-06T08:33:42Z</time>
      </trkpt>
      <trkpt lat="59.9538406" lon="17.7232763">
        <ele>56.8551</ele>
        <time>2014-07-06T08:33:43Z</time>
      </trkpt>
      <trkpt lat="59.9538529" lon="17.7232453">
        <ele>56.8551</ele>
        <time>2014-07-06T08:33:44Z</time>
      </trkpt>
      <trkpt lat="59.9538694" lon="17.7232214">
        <ele>56.3745</ele>
        <time>2014-07-06T08:33:45Z</time>
      </trkpt>
      <trkpt lat="59.9538955" lon="17.7232017">
        <ele>55.8938</ele>
        <time>2014-07-06T08:33:46Z</time>
      </trkpt>
      <trkpt lat="59.9539166" lon="17.7231839">
        <ele>55.4131</ele>
        <time>2014-07-06T08:33:47Z</time>
      </trkpt>
      <trkpt lat="59.9539297" lon="17.7231551">
        <ele>54.4518</ele>
        <time>2014-07-06T08:33:48Z</time>
      </trkpt>
      <trkpt lat="59.9539566" lon="17.723141">
        <ele>53.9712</ele>
        <time>2014-07-06T08:33:49Z</time>
      </trkpt>
      <trkpt lat="59.9539818" lon="17.7231323">
        <ele>53.4905</ele>
        <time>2014-07-06T08:33:50Z</time>
      </trkpt>
      <trkpt lat="59.9540118" lon="17.723128">
        <ele>53.0098</ele>
        <time>2014-07-06T08:33:51Z</time>
      </trkpt>
      <trkpt lat="59.9540411" lon="17.7231204">
        <ele>53.0098</ele>
        <time>2014-07-06T08:33:52Z</time>
      </trkpt>
      <trkpt lat="59.9540633" lon="17.7231135">
        <ele>52.0486</ele>
        <time>2014-07-06T08:33:53Z</time>
      </trkpt>
      <trkpt lat="59.9540835" lon="17.7231029">
        <ele>52.0486</ele>
        <time>2014-07-06T08:33:54Z</time>
      </trkpt>
      <trkpt lat="59.9541019" lon="17.7230971">
        <ele>51.0872</ele>
        <time>2014-07-06T08:33:55Z</time>
      </trkpt>
      <trkpt lat="59.9541299" lon="17.7231007">
        <ele>50.6066</ele>
        <time>2014-07-06T08:33:56Z</time>
      </trkpt>
      <trkpt lat="59.9541636" lon="17.7231033">
        <ele>50.126</ele>
        <time>2014-07-06T08:33:57Z</time>
      </trkpt>
      <trkpt lat="59.9541944" lon="17.7231126">
        <ele>49.6453</ele>
        <time>2014-07-06T08:33:58Z</time>
      </trkpt>
      <trkpt lat="59.9542203" lon="17.7231345">
        <ele>49.1646</ele>
        <time>2014-07-06T08:33:59Z</time>
      </trkpt>
      <trkpt lat="59.9542436" lon="17.7231561">
        <ele>48.684</ele>
        <time>2014-07-06T08:34:00Z</time>
      </trkpt>
      <trkpt lat="59.9542767" lon="17.7231763">
        <ele>49.1646</ele>
        <time>2014-07-06T08:34:01Z</time>
      </trkpt>
      <trkpt lat="59.9543037" lon="17.7231941">
        <ele>48.684</ele>
        <time>2014-07-06T08:34:02Z</time>
      </trkpt>
      <trkpt lat="59.9543271" lon="17.7232065">
        <ele>48.2034</ele>
        <time>2014-07-06T08:34:03Z</time>
      </trkpt>
      <trkpt lat="59.9543538" lon="17.7232148">
        <ele>47.7225</ele>
        <time>2014-07-06T08:34:04Z</time>
      </trkpt>
      <trkpt lat="59.9543874" lon="17.7232323">
        <ele>48.2034</ele>
        <time>2014-07-06T08:34:05Z</time>
      </trkpt>
      <trkpt lat="59.9544156" lon="17.7232567">
        <ele>48.2034</ele>
        <time>2014-07-06T08:34:06Z</time>
      </trkpt>
      <trkpt lat="59.9544539" lon="17.7232799">
        <ele>49.6453</ele>
        <time>2014-07-06T08:34:07Z</time>
      </trkpt>
      <trkpt lat="59.954486" lon="17.7233006">
        <ele>50.126</ele>
        <time>2014-07-06T08:34:08Z</time>
      </trkpt>
      <trkpt lat="59.9545208" lon="17.723322">
        <ele>50.6066</ele>
        <time>2014-07-06T08:34:09Z</time>
      </trkpt>
      <trkpt lat="59.9545584" lon="17.7233421">
        <ele>52.0486</ele>
        <time>2014-07-06T08:34:10Z</time>
      </trkpt>
      <trkpt lat="59.9545897" lon="17.7233566">
        <ele>53.0098</ele>
        <time>2014-07-06T08:34:11Z</time>
      </trkpt>
      <trkpt lat="59.9546233" lon="17.7233709">
        <ele>54.4518</ele>
        <time>2014-07-06T08:34:12Z</time>
      </trkpt>
      <trkpt lat="59.9546517" lon="17.7233924">
        <ele>54.9324</ele>
        <time>2014-07-06T08:34:13Z</time>
      </trkpt>
      <trkpt lat="59.9546787" lon="17.7234207">
        <ele>54.9324</ele>
        <time>2014-07-06T08:34:14Z</time>
      </trkpt>
      <trkpt lat="59.9547063" lon="17.7234386">
        <ele>55.8938</ele>
        <time>2014-07-06T08:34:15Z</time>
      </trkpt>
      <trkpt lat="59.9547268" lon="17.7234505">
        <ele>55.4131</ele>
        <time>2014-07-06T08:34:16Z</time>
      </trkpt>
      <trkpt lat="59.9547491" lon="17.723469">
        <ele>55.8938</ele>
        <time>2014-07-06T08:34:17Z</time>
      </trkpt>
      <trkpt lat="59.9547688" lon="17.7234887">
        <ele>55.8938</ele>
        <time>2014-07-06T08:34:18Z</time>
      </trkpt>
      <trkpt lat="59.9547889" lon="17.7235087">
        <ele>55.8938</ele>
        <time>2014-07-06T08:34:19Z</time>
      </trkpt>
      <trkpt lat="59.9548088" lon="17.723527">
        <ele>56.3745</ele>
        <time>2014-07-06T08:34:20Z</time>
      </trkpt>
      <trkpt lat="59.954834" lon="17.7235473">
        <ele>57.3358</ele>
        <time>2014-07-06T08:34:21Z</time>
      </trkpt>
      <trkpt lat="59.9548579" lon="17.7235674">
        <ele>57.8165</ele>
        <time>2014-07-06T08:34:22Z</time>
      </trkpt>
      <trkpt lat="59.9548793" lon="17.7235802">
        <ele>57.8165</ele>
        <time>2014-07-06T08:34:23Z</time>
      </trkpt>
      <trkpt lat="59.9549055" lon="17.7235878">
        <ele>58.2971</ele>
        <time>2014-07-06T08:34:24Z</time>
      </trkpt>
      <trkpt lat="59.9549342" lon="17.7235926">
        <ele>58.2971</ele>
        <time>2014-07-06T08:34:25Z</time>
      </trkpt>
      <trkpt lat="59.9549671" lon="17.7235971">
        <ele>59.7391</ele>
        <time>2014-07-06T08:34:26Z</time>
      </trkpt>
      <trkpt lat="59.9549945" lon="17.7235875">
        <ele>59.7391</ele>
        <time>2014-07-06T08:34:27Z</time>
      </trkpt>
      <trkpt lat="59.9550266" lon="17.7235783">
        <ele>60.7003</ele>
        <time>2014-07-06T08:34:28Z</time>
      </trkpt>
      <trkpt lat="59.9550589" lon="17.7235643">
        <ele>61.181</ele>
        <time>2014-07-06T08:34:29Z</time>
      </trkpt>
      <trkpt lat="59.9550859" lon="17.7235508">
        <ele>61.181</ele>
        <time>2014-07-06T08:34:30Z</time>
      </trkpt>
      <trkpt lat="59.955115" lon="17.7235311">
        <ele>61.6617</ele>
        <time>2014-07-06T08:34:31Z</time>
      </trkpt>
      <trkpt lat="59.9551393" lon="17.7235213">
        <ele>61.181</ele>
        <time>2014-07-06T08:34:32Z</time>
      </trkpt>
      <trkpt lat="59.9551651" lon="17.7235099">
        <ele>61.181</ele>
        <time>2014-07-06T08:34:33Z</time>
      </trkpt>
      <trkpt lat="59.95519" lon="17.723493">
        <ele>61.6617</ele>
        <time>2014-07-06T08:34:34Z</time>
      </trkpt>
      <trkpt lat="59.9552183" lon="17.7234728">
        <ele>62.1423</ele>
        <time>2014-07-06T08:34:35Z</time>
      </trkpt>
      <trkpt lat="59.9552436" lon="17.7234498">
        <ele>62.6229</ele>
        <time>2014-07-06T08:34:36Z</time>
      </trkpt>
      <trkpt lat="59.9552706" lon="17.7234317">
        <ele>62.6229</ele>
        <time>2014-07-06T08:34:37Z</time>
      </trkpt>
      <trkpt lat="59.9552951" lon="17.7234162">
        <ele>61.6617</ele>
        <time>2014-07-06T08:34:38Z</time>
      </trkpt>
      <trkpt lat="59.955319" lon="17.7233996">
        <ele>61.6617</ele>
        <time>2014-07-06T08:34:39Z</time>
      </trkpt>
      <trkpt lat="59.9553379" lon="17.7233831">
        <ele>60.7003</ele>
        <time>2014-07-06T08:34:40Z</time>
      </trkpt>
      <trkpt lat="59.9553655" lon="17.7233747">
        <ele>61.6617</ele>
        <time>2014-07-06T08:34:41Z</time>
      </trkpt>
      <trkpt lat="59.9553931" lon="17.7233748">
        <ele>61.6617</ele>
        <time>2014-07-06T08:34:42Z</time>
      </trkpt>
      <trkpt lat="59.9554209" lon="17.723366">
        <ele>61.181</ele>
        <time>2014-07-06T08:34:43Z</time>
      </trkpt>
      <trkpt lat="59.9554503" lon="17.7233629">
        <ele>61.181</ele>
        <time>2014-07-06T08:34:44Z</time>
      </trkpt>
      <trkpt lat="59.9554749" lon="17.7233662">
        <ele>61.181</ele>
        <time>2014-07-06T08:34:45Z</time>
      </trkpt>
      <trkpt lat="59.9554992" lon="17.7233764">
        <ele>60.2197</ele>
        <time>2014-07-06T08:34:46Z</time>
      </trkpt>
      <trkpt lat="59.9555204" lon="17.7233925">
        <ele>59.7391</ele>
        <time>2014-07-06T08:34:47Z</time>
      </trkpt>
      <trkpt lat="59.9555371" lon="17.7234033">
        <ele>58.7777</ele>
        <time>2014-07-06T08:34:48Z</time>
      </trkpt>
      <trkpt lat="59.9555529" lon="17.7234166">
        <ele>57.8165</ele>
        <time>2014-07-06T08:34:49Z</time>
      </trkpt>
      <trkpt lat="59.9555705" lon="17.7234269">
        <ele>57.3358</ele>
        <time>2014-07-06T08:34:50Z</time>
      </trkpt>
      <trkpt lat="59.9555913" lon="17.7234399">
        <ele>57.3358</ele>
        <time>2014-07-06T08:34:51Z</time>
      </trkpt>
      <trkpt lat="59.9556166" lon="17.7234638">
        <ele>56.8551</ele>
        <time>2014-07-06T08:34:52Z</time>
      </trkpt>
      <trkpt lat="59.9556423" lon="17.7234878">
        <ele>56.8551</ele>
        <time>2014-07-06T08:34:53Z</time>
      </trkpt>
      <trkpt lat="59.9556672" lon="17.7235128">
        <ele>56.8551</ele>
        <time>2014-07-06T08:34:54Z</time>
      </trkpt>
      <trkpt lat="59.9556912" lon="17.7235316">
        <ele>56.3745</ele>
        <time>2014-07-06T08:34:55Z</time>
      </trkpt>
      <trkpt lat="59.9557146" lon="17.7235499">
        <ele>55.4131</ele>
        <time>2014-07-06T08:34:56Z</time>
      </trkpt>
      <trkpt lat="59.9557302" lon="17.7235606">
        <ele>54.4518</ele>
        <time>2014-07-06T08:34:57Z</time>
      </trkpt>
      <trkpt lat="59.9557561" lon="17.7235768">
        <ele>54.9324</ele>
        <time>2014-07-06T08:34:58Z</time>
      </trkpt>
      <trkpt lat="59.9557808" lon="17.7235966">
        <ele>55.8938</ele>
        <time>2014-07-06T08:34:59Z</time>
      </trkpt>
      <trkpt lat="59.9558043" lon="17.7236097">
        <ele>55.4131</ele>
        <time>2014-07-06T08:35:00Z</time>
      </trkpt>
      <trkpt lat="59.9558252" lon="17.7236167">
        <ele>55.4131</ele>
        <time>2014-07-06T08:35:01Z</time>
      </trkpt>
      <trkpt lat="59.9558454" lon="17.7236166">
        <ele>55.4131</ele>
        <time>2014-07-06T08:35:02Z</time>
      </trkpt>
      <trkpt lat="59.9558675" lon="17.7236084">
        <ele>55.4131</ele>
        <time>2014-07-06T08:35:03Z</time>
      </trkpt>
      <trkpt lat="59.9558956" lon="17.7235928">
        <ele>55.8938</ele>
        <time>2014-07-06T08:35:04Z</time>
      </trkpt>
      <trkpt lat="59.9559152" lon="17.7235569">
        <ele>55.8938</ele>
        <time>2014-07-06T08:35:05Z</time>
      </trkpt>
      <trkpt lat="59.9559379" lon="17.7235178">
        <ele>55.4131</ele>
        <time>2014-07-06T08:35:06Z</time>
      </trkpt>
      <trkpt lat="59.955968" lon="17.7234954">
        <ele>55.8938</ele>
        <time>2014-07-06T08:35:07Z</time>
      </trkpt>
      <trkpt lat="59.955988" lon="17.7234755">
        <ele>54.9324</ele>
        <time>2014-07-06T08:35:08Z</time>
      </trkpt>
      <trkpt lat="59.9560023" lon="17.7234442">
        <ele>54.4518</ele>
        <time>2014-07-06T08:35:09Z</time>
      </trkpt>
      <trkpt lat="59.9560205" lon="17.7234011">
        <ele>54.4518</ele>
        <time>2014-07-06T08:35:10Z</time>
      </trkpt>
      <trkpt lat="59.9560319" lon="17.7233493">
        <ele>53.9712</ele>
        <time>2014-07-06T08:35:11Z</time>
      </trkpt>
      <trkpt lat="59.9560431" lon="17.7232968">
        <ele>53.0098</ele>
        <time>2014-07-06T08:35:12Z</time>
      </trkpt>
      <trkpt lat="59.9560517" lon="17.7232513">
        <ele>52.5292</ele>
        <time>2014-07-06T08:35:13Z</time>
      </trkpt>
      <trkpt lat="59.95606" lon="17.7232069">
        <ele>51.5679</ele>
        <time>2014-07-06T08:35:14Z</time>
      </trkpt>
      <trkpt lat="59.9560721" lon="17.7231578">
        <ele>51.0872</ele>
        <time>2014-07-06T08:35:15Z</time>
      </trkpt>
      <trkpt lat="59.9560788" lon="17.7231089">
        <ele>50.6066</ele>
        <time>2014-07-06T08:35:16Z</time>
      </trkpt>
      <trkpt lat="59.9560811" lon="17.7230615">
        <ele>49.6453</ele>
        <time>2014-07-06T08:35:17Z</time>
      </trkpt>
      <trkpt lat="59.9560829" lon="17.7230246">
        <ele>48.684</ele>
        <time>2014-07-06T08:35:18Z</time>
      </trkpt>
      <trkpt lat="59.9560804" lon="17.7229907">
        <ele>48.2034</ele>
        <time>2014-07-06T08:35:19Z</time>
      </trkpt>
      <trkpt lat="59.9560805" lon="17.7229492">
        <ele>48.2034</ele>
        <time>2014-07-06T08:35:20Z</time>
      </trkpt>
      <trkpt lat="59.9560733" lon="17.7228887">
        <ele>47.7225</ele>
        <time>2014-07-06T08:35:21Z</time>
      </trkpt>
      <trkpt lat="59.9560686" lon="17.7228374">
        <ele>47.7225</ele>
        <time>2014-07-06T08:35:22Z</time>
      </trkpt>
      <trkpt lat="59.9560602" lon="17.7227879">
        <ele>46.7612</ele>
        <time>2014-07-06T08:35:23Z</time>
      </trkpt>
      <trkpt lat="59.9560466" lon="17.7227389">
        <ele>46.7612</ele>
        <time>2014-07-06T08:35:24Z</time>
      </trkpt>
      <trkpt lat="59.9560326" lon="17.722682">
        <ele>46.7612</ele>
        <time>2014-07-06T08:35:25Z</time>
      </trkpt>
      <trkpt lat="59.9560191" lon="17.7226329">
        <ele>46.2806</ele>
        <time>2014-07-06T08:35:26Z</time>
      </trkpt>
      <trkpt lat="59.9560089" lon="17.7225874">
        <ele>46.2806</ele>
        <time>2014-07-06T08:35:27Z</time>
      </trkpt>
      <trkpt lat="59.9559979" lon="17.7225324">
        <ele>45.7999</ele>
        <time>2014-07-06T08:35:28Z</time>
      </trkpt>
      <trkpt lat="59.9559814" lon="17.7224807">
        <ele>45.3192</ele>
        <time>2014-07-06T08:35:29Z</time>
      </trkpt>
      <trkpt lat="59.9559572" lon="17.722436">
        <ele>44.8386</ele>
        <time>2014-07-06T08:35:30Z</time>
      </trkpt>
      <trkpt lat="59.9559349" lon="17.7223838">
        <ele>45.3192</ele>
        <time>2014-07-06T08:35:31Z</time>
      </trkpt>
      <trkpt lat="59.9559179" lon="17.7223288">
        <ele>45.7999</ele>
        <time>2014-07-06T08:35:32Z</time>
      </trkpt>
      <trkpt lat="59.9559131" lon="17.7222781">
        <ele>45.7999</ele>
        <time>2014-07-06T08:35:33Z</time>
      </trkpt>
      <trkpt lat="59.9559101" lon="17.7222283">
        <ele>46.7612</ele>
        <time>2014-07-06T08:35:34Z</time>
      </trkpt>
      <trkpt lat="59.9559069" lon="17.7221757">
        <ele>46.2806</ele>
        <time>2014-07-06T08:35:35Z</time>
      </trkpt>
      <trkpt lat="59.9559078" lon="17.7221186">
        <ele>46.7612</ele>
        <time>2014-07-06T08:35:36Z</time>
      </trkpt>
      <trkpt lat="59.9559116" lon="17.7220653">
        <ele>47.2418</ele>
        <time>2014-07-06T08:35:37Z</time>
      </trkpt>
      <trkpt lat="59.9559106" lon="17.7220103">
        <ele>47.7225</ele>
        <time>2014-07-06T08:35:38Z</time>
      </trkpt>
      <trkpt lat="59.9559065" lon="17.7219507">
        <ele>48.2034</ele>
        <time>2014-07-06T08:35:39Z</time>
      </trkpt>
      <trkpt lat="59.9559024" lon="17.7218937">
        <ele>48.2034</ele>
        <time>2014-07-06T08:35:40Z</time>
      </trkpt>
      <trkpt lat="59.9559047" lon="17.7218397">
        <ele>48.2034</ele>
        <time>2014-07-06T08:35:41Z</time>
      </trkpt>
      <trkpt lat="59.9559127" lon="17.7217891">
        <ele>49.1646</ele>
        <time>2014-07-06T08:35:42Z</time>
      </trkpt>
      <trkpt lat="59.9559179" lon="17.7217377">
        <ele>50.126</ele>
        <time>2014-07-06T08:35:43Z</time>
      </trkpt>
      <trkpt lat="59.9559265" lon="17.7216921">
        <ele>50.6066</ele>
        <time>2014-07-06T08:35:44Z</time>
      </trkpt>
      <trkpt lat="59.9559322" lon="17.7216402">
        <ele>50.6066</ele>
        <time>2014-07-06T08:35:45Z</time>
      </trkpt>
      <trkpt lat="59.9559388" lon="17.721588">
        <ele>50.6066</ele>
        <time>2014-07-06T08:35:46Z</time>
      </trkpt>
      <trkpt lat="59.9559451" lon="17.7215332">
        <ele>50.6066</ele>
        <time>2014-07-06T08:35:47Z</time>
      </trkpt>
      <trkpt lat="59.9559436" lon="17.7214825">
        <ele>50.6066</ele>
        <time>2014-07-06T08:35:48Z</time>
      </trkpt>
      <trkpt lat="59.9559355" lon="17.7214379">
        <ele>50.126</ele>
        <time>2014-07-06T08:35:49Z</time>
      </trkpt>
      <trkpt lat="59.9559203" lon="17.7213935">
        <ele>50.6066</ele>
        <time>2014-07-06T08:35:50Z</time>
      </trkpt>
      <trkpt lat="59.9559002" lon="17.7213523">
        <ele>50.6066</ele>
        <time>2014-07-06T08:35:51Z</time>
      </trkpt>
      <trkpt lat="59.9558774" lon="17.7213234">
        <ele>50.6066</ele>
        <time>2014-07-06T08:35:52Z</time>
      </trkpt>
      <trkpt lat="59.9558582" lon="17.7213042">
        <ele>51.0872</ele>
        <time>2014-07-06T08:35:53Z</time>
      </trkpt>
      <trkpt lat="59.9558385" lon="17.7213021">
        <ele>51.0872</ele>
        <time>2014-07-06T08:35:54Z</time>
      </trkpt>
      <trkpt lat="59.9558179" lon="17.7212976">
        <ele>51.0872</ele>
        <time>2014-07-06T08:35:55Z</time>
      </trkpt>
      <trkpt lat="59.9557945" lon="17.7212904">
        <ele>51.0872</ele>
        <time>2014-07-06T08:35:56Z</time>
      </trkpt>
      <trkpt lat="59.955772" lon="17.7212831">
        <ele>51.5679</ele>
        <time>2014-07-06T08:35:57Z</time>
      </trkpt>
      <trkpt lat="59.9557484" lon="17.7212892">
        <ele>51.5679</ele>
        <time>2014-07-06T08:35:58Z</time>
      </trkpt>
      <trkpt lat="59.9557285" lon="17.7213047">
        <ele>51.5679</ele>
        <time>2014-07-06T08:35:59Z</time>
      </trkpt>
      <trkpt lat="59.9557062" lon="17.721326">
        <ele>51.5679</ele>
        <time>2014-07-06T08:36:00Z</time>
      </trkpt>
      <trkpt lat="59.9556772" lon="17.7213434">
        <ele>51.0872</ele>
        <time>2014-07-06T08:36:01Z</time>
      </trkpt>
      <trkpt lat="59.9556526" lon="17.7213652">
        <ele>51.5679</ele>
        <time>2014-07-06T08:36:02Z</time>
      </trkpt>
      <trkpt lat="59.9556307" lon="17.7213805">
        <ele>51.5679</ele>
        <time>2014-07-06T08:36:03Z</time>
      </trkpt>
      <trkpt lat="59.95561" lon="17.7213902">
        <ele>52.0486</ele>
        <time>2014-07-06T08:36:04Z</time>
      </trkpt>
      <trkpt lat="59.9555852" lon="17.7213934">
        <ele>51.5679</ele>
        <time>2014-07-06T08:36:05Z</time>
      </trkpt>
      <trkpt lat="59.9555589" lon="17.7214012">
        <ele>51.5679</ele>
        <time>2014-07-06T08:36:06Z</time>
      </trkpt>
      <trkpt lat="59.9555359" lon="17.7214118">
        <ele>51.0872</ele>
        <time>2014-07-06T08:36:07Z</time>
      </trkpt>
      <trkpt lat="59.9555126" lon="17.7214165">
        <ele>51.0872</ele>
        <time>2014-07-06T08:36:08Z</time>
      </trkpt>
      <trkpt lat="59.9554879" lon="17.7214306">
        <ele>50.6066</ele>
        <time>2014-07-06T08:36:09Z</time>
      </trkpt>
      <trkpt lat="59.9554604" lon="17.7214375">
        <ele>50.126</ele>
        <time>2014-07-06T08:36:10Z</time>
      </trkpt>
      <trkpt lat="59.9554397" lon="17.7214261">
        <ele>50.126</ele>
        <time>2014-07-06T08:36:11Z</time>
      </trkpt>
      <trkpt lat="59.9554214" lon="17.7214125">
        <ele>49.1646</ele>
        <time>2014-07-06T08:36:12Z</time>
      </trkpt>
      <trkpt lat="59.9554038" lon="17.7213975">
        <ele>48.684</ele>
        <time>2014-07-06T08:36:13Z</time>
      </trkpt>
      <trkpt lat="59.9553815" lon="17.7213929">
        <ele>48.684</ele>
        <time>2014-07-06T08:36:14Z</time>
      </trkpt>
      <trkpt lat="59.9553588" lon="17.7213841">
        <ele>47.7225</ele>
        <time>2014-07-06T08:36:15Z</time>
      </trkpt>
      <trkpt lat="59.9553406" lon="17.7213717">
        <ele>47.2418</ele>
        <time>2014-07-06T08:36:16Z</time>
      </trkpt>
      <trkpt lat="59.9553163" lon="17.7213673">
        <ele>46.7612</ele>
        <time>2014-07-06T08:36:17Z</time>
      </trkpt>
      <trkpt lat="59.9552918" lon="17.7213501">
        <ele>46.2806</ele>
        <time>2014-07-06T08:36:18Z</time>
      </trkpt>
      <trkpt lat="59.9552602" lon="17.7213446">
        <ele>45.7999</ele>
        <time>2014-07-06T08:36:19Z</time>
      </trkpt>
      <trkpt lat="59.9552352" lon="17.7213329">
        <ele>45.3192</ele>
        <time>2014-07-06T08:36:20Z</time>
      </trkpt>
      <trkpt lat="59.9552155" lon="17.7213253">
        <ele>45.3192</ele>
        <time>2014-07-06T08:36:21Z</time>
      </trkpt>
      <trkpt lat="59.9551946" lon="17.7213161">
        <ele>44.8386</ele>
        <time>2014-07-06T08:36:22Z</time>
      </trkpt>
      <trkpt lat="59.9551714" lon="17.7213141">
        <ele>44.8386</ele>
        <time>2014-07-06T08:36:23Z</time>
      </trkpt>
      <trkpt lat="59.9551464" lon="17.721309">
        <ele>44.8386</ele>
        <time>2014-07-06T08:36:24Z</time>
      </trkpt>
      <trkpt lat="59.9551173" lon="17.7213073">
        <ele>44.8386</ele>
        <time>2014-07-06T08:36:25Z</time>
      </trkpt>
      <trkpt lat="59.9550909" lon="17.7212976">
        <ele>44.8386</ele>
        <time>2014-07-06T08:36:26Z</time>
      </trkpt>
      <trkpt lat="59.9550639" lon="17.721299">
        <ele>44.8386</ele>
        <time>2014-07-06T08:36:27Z</time>
      </trkpt>
      <trkpt lat="59.955035" lon="17.7213094">
        <ele>45.3192</ele>
        <time>2014-07-06T08:36:28Z</time>
      </trkpt>
      <trkpt lat="59.9550092" lon="17.7213015">
        <ele>44.8386</ele>
        <time>2014-07-06T08:36:29Z</time>
      </trkpt>
      <trkpt lat="59.9549771" lon="17.7212995">
        <ele>45.3192</ele>
        <time>2014-07-06T08:36:30Z</time>
      </trkpt>
      <trkpt lat="59.9549448" lon="17.7213005">
        <ele>45.3192</ele>
        <time>2014-07-06T08:36:31Z</time>
      </trkpt>
      <trkpt lat="59.9549232" lon="17.7212836">
        <ele>44.8386</ele>
        <time>2014-07-06T08:36:32Z</time>
      </trkpt>
      <trkpt lat="59.954902" lon="17.7212598">
        <ele>44.8386</ele>
        <time>2014-07-06T08:36:33Z</time>
      </trkpt>
      <trkpt lat="59.9548824" lon="17.7212274">
        <ele>45.3192</ele>
        <time>2014-07-06T08:36:34Z</time>
      </trkpt>
      <trkpt lat="59.9548657" lon="17.7211868">
        <ele>44.8386</ele>
        <time>2014-07-06T08:36:35Z</time>
      </trkpt>
      <trkpt lat="59.9548448" lon="17.7211489">
        <ele>44.8386</ele>
        <time>2014-07-06T08:36:36Z</time>
      </trkpt>
      <trkpt lat="59.9548237" lon="17.7211053">
        <ele>44.8386</ele>
        <time>2014-07-06T08:36:37Z</time>
      </trkpt>
      <trkpt lat="59.9548085" lon="17.7210534">
        <ele>44.8386</ele>
        <time>2014-07-06T08:36:38Z</time>
      </trkpt>
      <trkpt lat="59.9547963" lon="17.7209967">
        <ele>44.8386</ele>
        <time>2014-07-06T08:36:39Z</time>
      </trkpt>
      <trkpt lat="59.9547849" lon="17.7209404">
        <ele>45.3192</ele>
        <time>2014-07-06T08:36:40Z</time>
      </trkpt>
      <trkpt lat="59.9547802" lon="17.7208871">
        <ele>45.3192</ele>
        <time>2014-07-06T08:36:41Z</time>
      </trkpt>
      <trkpt lat="59.9547849" lon="17.7208318">
        <ele>45.3192</ele>
        <time>2014-07-06T08:36:42Z</time>
      </trkpt>
      <trkpt lat="59.9547927" lon="17.7207821">
        <ele>45.3192</ele>
        <time>2014-07-06T08:36:43Z</time>
      </trkpt>
      <trkpt lat="59.9548004" lon="17.7207267">
        <ele>45.3192</ele>
        <time>2014-07-06T08:36:44Z</time>
      </trkpt>
      <trkpt lat="59.9548065" lon="17.7206726">
        <ele>45.7999</ele>
        <time>2014-07-06T08:36:45Z</time>
      </trkpt>
      <trkpt lat="59.9548138" lon="17.7206345">
        <ele>46.2806</ele>
        <time>2014-07-06T08:36:46Z</time>
      </trkpt>
      <trkpt lat="59.954827" lon="17.7205977">
        <ele>46.7612</ele>
        <time>2014-07-06T08:36:47Z</time>
      </trkpt>
      <trkpt lat="59.9548465" lon="17.7205617">
        <ele>47.2418</ele>
        <time>2014-07-06T08:36:48Z</time>
      </trkpt>
      <trkpt lat="59.9548658" lon="17.7205296">
        <ele>47.7225</ele>
        <time>2014-07-06T08:36:49Z</time>
      </trkpt>
      <trkpt lat="59.9548833" lon="17.7205049">
        <ele>47.7225</ele>
        <time>2014-07-06T08:36:50Z</time>
      </trkpt>
      <trkpt lat="59.9549009" lon="17.7204765">
        <ele>48.2034</ele>
        <time>2014-07-06T08:36:51Z</time>
      </trkpt>
      <trkpt lat="59.9549165" lon="17.7204413">
        <ele>48.684</ele>
        <time>2014-07-06T08:36:52Z</time>
      </trkpt>
      <trkpt lat="59.9549362" lon="17.720408">
        <ele>49.1646</ele>
        <time>2014-07-06T08:36:53Z</time>
      </trkpt>
      <trkpt lat="59.9549569" lon="17.7203807">
        <ele>49.1646</ele>
        <time>2014-07-06T08:36:54Z</time>
      </trkpt>
      <trkpt lat="59.9549795" lon="17.7203613">
        <ele>49.6453</ele>
        <time>2014-07-06T08:36:55Z</time>
      </trkpt>
      <trkpt lat="59.955005" lon="17.7203398">
        <ele>50.6066</ele>
        <time>2014-07-06T08:36:56Z</time>
      </trkpt>
      <trkpt lat="59.9550305" lon="17.72031">
        <ele>51.0872</ele>
        <time>2014-07-06T08:36:57Z</time>
      </trkpt>
      <trkpt lat="59.9550502" lon="17.7202776">
        <ele>51.0872</ele>
        <time>2014-07-06T08:36:58Z</time>
      </trkpt>
      <trkpt lat="59.9550681" lon="17.7202484">
        <ele>52.0486</ele>
        <time>2014-07-06T08:36:59Z</time>
      </trkpt>
      <trkpt lat="59.955091" lon="17.7202219">
        <ele>52.5292</ele>
        <time>2014-07-06T08:37:00Z</time>
      </trkpt>
      <trkpt lat="59.9551169" lon="17.7201937">
        <ele>53.4905</ele>
        <time>2014-07-06T08:37:01Z</time>
      </trkpt>
      <trkpt lat="59.9551421" lon="17.720174">
        <ele>53.9712</ele>
        <time>2014-07-06T08:37:02Z</time>
      </trkpt>
      <trkpt lat="59.9551582" lon="17.7201558">
        <ele>53.9712</ele>
        <time>2014-07-06T08:37:03Z</time>
      </trkpt>
      <trkpt lat="59.9551775" lon="17.7201365">
        <ele>54.4518</ele>
        <time>2014-07-06T08:37:04Z</time>
      </trkpt>
      <trkpt lat="59.9551994" lon="17.7201113">
        <ele>55.4131</ele>
        <time>2014-07-06T08:37:05Z</time>
      </trkpt>
      <trkpt lat="59.9552214" lon="17.7200828">
        <ele>56.3745</ele>
        <time>2014-07-06T08:37:06Z</time>
      </trkpt>
      <trkpt lat="59.9552479" lon="17.7200559">
        <ele>57.3358</ele>
        <time>2014-07-06T08:37:07Z</time>
      </trkpt>
      <trkpt lat="59.9552743" lon="17.7200279">
        <ele>57.3358</ele>
        <time>2014-07-06T08:37:08Z</time>
      </trkpt>
      <trkpt lat="59.9552989" lon="17.7199971">
        <ele>57.8165</ele>
        <time>2014-07-06T08:37:09Z</time>
      </trkpt>
      <trkpt lat="59.9553237" lon="17.7199749">
        <ele>58.2971</ele>
        <time>2014-07-06T08:37:10Z</time>
      </trkpt>
      <trkpt lat="59.9553469" lon="17.7199517">
        <ele>58.7777</ele>
        <time>2014-07-06T08:37:11Z</time>
      </trkpt>
      <trkpt lat="59.9553687" lon="17.7199315">
        <ele>59.2584</ele>
        <time>2014-07-06T08:37:12Z</time>
      </trkpt>
      <trkpt lat="59.9553925" lon="17.7199093">
        <ele>59.2584</ele>
        <time>2014-07-06T08:37:13Z</time>
      </trkpt>
      <trkpt lat="59.9554226" lon="17.7198958">
        <ele>59.7391</ele>
        <time>2014-07-06T08:37:14Z</time>
      </trkpt>
      <trkpt lat="59.9554569" lon="17.7198884">
        <ele>60.2197</ele>
        <time>2014-07-06T08:37:15Z</time>
      </trkpt>
      <trkpt lat="59.9554888" lon="17.7198824">
        <ele>60.2197</ele>
        <time>2014-07-06T08:37:16Z</time>
      </trkpt>
      <trkpt lat="59.9555151" lon="17.719874">
        <ele>60.2197</ele>
        <time>2014-07-06T08:37:17Z</time>
      </trkpt>
      <trkpt lat="59.9555366" lon="17.7198633">
        <ele>60.7003</ele>
        <time>2014-07-06T08:37:18Z</time>
      </trkpt>
      <trkpt lat="59.9555602" lon="17.7198497">
        <ele>60.7003</ele>
        <time>2014-07-06T08:37:19Z</time>
      </trkpt>
      <trkpt lat="59.9555814" lon="17.7198377">
        <ele>60.2197</ele>
        <time>2014-07-06T08:37:20Z</time>
      </trkpt>
      <trkpt lat="59.9556011" lon="17.719826">
        <ele>59.2584</ele>
        <time>2014-07-06T08:37:21Z</time>
      </trkpt>
      <trkpt lat="59.9556226" lon="17.7197944">
        <ele>59.7391</ele>
        <time>2014-07-06T08:37:22Z</time>
      </trkpt>
      <trkpt lat="59.9556492" lon="17.7197765">
        <ele>60.2197</ele>
        <time>2014-07-06T08:37:23Z</time>
      </trkpt>
      <trkpt lat="59.9556755" lon="17.7197569">
        <ele>59.7391</ele>
        <time>2014-07-06T08:37:24Z</time>
      </trkpt>
      <trkpt lat="59.9557028" lon="17.719727">
        <ele>59.2584</ele>
        <time>2014-07-06T08:37:25Z</time>
      </trkpt>
      <trkpt lat="59.9557299" lon="17.7196892">
        <ele>59.2584</ele>
        <time>2014-07-06T08:37:26Z</time>
      </trkpt>
      <trkpt lat="59.9557544" lon="17.7196439">
        <ele>59.2584</ele>
        <time>2014-07-06T08:37:27Z</time>
      </trkpt>
      <trkpt lat="59.9557777" lon="17.7196057">
        <ele>59.2584</ele>
        <time>2014-07-06T08:37:28Z</time>
      </trkpt>
      <trkpt lat="59.9558001" lon="17.7195811">
        <ele>59.2584</ele>
        <time>2014-07-06T08:37:29Z</time>
      </trkpt>
      <trkpt lat="59.9558231" lon="17.7195548">
        <ele>58.7777</ele>
        <time>2014-07-06T08:37:30Z</time>
      </trkpt>
      <trkpt lat="59.9558463" lon="17.7195345">
        <ele>58.7777</ele>
        <time>2014-07-06T08:37:31Z</time>
      </trkpt>
      <trkpt lat="59.9558711" lon="17.7195188">
        <ele>58.7777</ele>
        <time>2014-07-06T08:37:32Z</time>
      </trkpt>
      <trkpt lat="59.9559002" lon="17.7195014">
        <ele>58.7777</ele>
        <time>2014-07-06T08:37:33Z</time>
      </trkpt>
      <trkpt lat="59.9559265" lon="17.7194788">
        <ele>58.7777</ele>
        <time>2014-07-06T08:37:34Z</time>
      </trkpt>
      <trkpt lat="59.9559482" lon="17.7194489">
        <ele>58.7777</ele>
        <time>2014-07-06T08:37:35Z</time>
      </trkpt>
      <trkpt lat="59.9559696" lon="17.7194113">
        <ele>58.7777</ele>
        <time>2014-07-06T08:37:36Z</time>
      </trkpt>
      <trkpt lat="59.9559964" lon="17.7193829">
        <ele>58.7777</ele>
        <time>2014-07-06T08:37:37Z</time>
      </trkpt>
      <trkpt lat="59.9560172" lon="17.7193629">
        <ele>58.2971</ele>
        <time>2014-07-06T08:37:38Z</time>
      </trkpt>
      <trkpt lat="59.9560353" lon="17.7193346">
        <ele>58.2971</ele>
        <time>2014-07-06T08:37:39Z</time>
      </trkpt>
      <trkpt lat="59.956053" lon="17.7192989">
        <ele>58.2971</ele>
        <time>2014-07-06T08:37:40Z</time>
      </trkpt>
      <trkpt lat="59.956069" lon="17.7192549">
        <ele>58.2971</ele>
        <time>2014-07-06T08:37:41Z</time>
      </trkpt>
      <trkpt lat="59.9560875" lon="17.7192048">
        <ele>58.7777</ele>
        <time>2014-07-06T08:37:42Z</time>
      </trkpt>
      <trkpt lat="59.9561061" lon="17.7191543">
        <ele>59.2584</ele>
        <time>2014-07-06T08:37:43Z</time>
      </trkpt>
      <trkpt lat="59.9561209" lon="17.719095">
        <ele>59.7391</ele>
        <time>2014-07-06T08:37:44Z</time>
      </trkpt>
      <trkpt lat="59.9561388" lon="17.7190446">
        <ele>59.7391</ele>
        <time>2014-07-06T08:37:45Z</time>
      </trkpt>
      <trkpt lat="59.9561535" lon="17.7190006">
        <ele>60.2197</ele>
        <time>2014-07-06T08:37:46Z</time>
      </trkpt>
      <trkpt lat="59.9561619" lon="17.7189603">
        <ele>60.2197</ele>
        <time>2014-07-06T08:37:47Z</time>
      </trkpt>
      <trkpt lat="59.9561719" lon="17.7189095">
        <ele>60.2197</ele>
        <time>2014-07-06T08:37:48Z</time>
      </trkpt>
      <trkpt lat="59.9561809" lon="17.718854">
        <ele>60.7003</ele>
        <time>2014-07-06T08:37:49Z</time>
      </trkpt>
      <trkpt lat="59.956187" lon="17.7187996">
        <ele>60.2197</ele>
        <time>2014-07-06T08:37:50Z</time>
      </trkpt>
      <trkpt lat="59.9561987" lon="17.7187487">
        <ele>60.2197</ele>
        <time>2014-07-06T08:37:51Z</time>
      </trkpt>
      <trkpt lat="59.9562025" lon="17.7187032">
        <ele>60.2197</ele>
        <time>2014-07-06T08:37:52Z</time>
      </trkpt>
      <trkpt lat="59.9561986" lon="17.7186572">
        <ele>59.7391</ele>
        <time>2014-07-06T08:37:53Z</time>
      </trkpt>
      <trkpt lat="59.9561945" lon="17.7186147">
        <ele>60.2197</ele>
        <time>2014-07-06T08:37:54Z</time>
      </trkpt>
      <trkpt lat="59.9561887" lon="17.7185817">
        <ele>59.7391</ele>
        <time>2014-07-06T08:37:55Z</time>
      </trkpt>
      <trkpt lat="59.9561794" lon="17.7185552">
        <ele>59.7391</ele>
        <time>2014-07-06T08:37:56Z</time>
      </trkpt>
      <trkpt lat="59.9561657" lon="17.7185277">
        <ele>60.2197</ele>
        <time>2014-07-06T08:37:57Z</time>
      </trkpt>
      <trkpt lat="59.9561494" lon="17.7184892">
        <ele>60.2197</ele>
        <time>2014-07-06T08:37:58Z</time>
      </trkpt>
      <trkpt lat="59.9561349" lon="17.718434">
        <ele>59.7391</ele>
        <time>2014-07-06T08:37:59Z</time>
      </trkpt>
      <trkpt lat="59.9561191" lon="17.7183838">
        <ele>59.7391</ele>
        <time>2014-07-06T08:38:00Z</time>
      </trkpt>
      <trkpt lat="59.9561025" lon="17.7183315">
        <ele>59.2584</ele>
        <time>2014-07-06T08:38:01Z</time>
      </trkpt>
      <trkpt lat="59.956088" lon="17.7182761">
        <ele>59.2584</ele>
        <time>2014-07-06T08:38:02Z</time>
      </trkpt>
      <trkpt lat="59.95607" lon="17.7182286">
        <ele>58.7777</ele>
        <time>2014-07-06T08:38:03Z</time>
      </trkpt>
      <trkpt lat="59.9560489" lon="17.7181834">
        <ele>58.7777</ele>
        <time>2014-07-06T08:38:04Z</time>
      </trkpt>
      <trkpt lat="59.9560291" lon="17.7181426">
        <ele>58.7777</ele>
        <time>2014-07-06T08:38:05Z</time>
      </trkpt>
      <trkpt lat="59.9560027" lon="17.7180994">
        <ele>58.2971</ele>
        <time>2014-07-06T08:38:06Z</time>
      </trkpt>
      <trkpt lat="59.9559758" lon="17.7180631">
        <ele>57.8165</ele>
        <time>2014-07-06T08:38:07Z</time>
      </trkpt>
      <trkpt lat="59.9559546" lon="17.7180236">
        <ele>57.8165</ele>
        <time>2014-07-06T08:38:08Z</time>
      </trkpt>
      <trkpt lat="59.9559312" lon="17.7179781">
        <ele>57.3358</ele>
        <time>2014-07-06T08:38:09Z</time>
      </trkpt>
      <trkpt lat="59.9559065" lon="17.7179401">
        <ele>56.8551</ele>
        <time>2014-07-06T08:38:10Z</time>
      </trkpt>
      <trkpt lat="59.9558818" lon="17.7179004">
        <ele>56.8551</ele>
        <time>2014-07-06T08:38:11Z</time>
      </trkpt>
      <trkpt lat="59.9558536" lon="17.7178652">
        <ele>55.8938</ele>
        <time>2014-07-06T08:38:12Z</time>
      </trkpt>
      <trkpt lat="59.9558359" lon="17.7178303">
        <ele>55.4131</ele>
        <time>2014-07-06T08:38:13Z</time>
      </trkpt>
      <trkpt lat="59.9558214" lon="17.7177905">
        <ele>54.4518</ele>
        <time>2014-07-06T08:38:14Z</time>
      </trkpt>
      <trkpt lat="59.9558057" lon="17.7177533">
        <ele>53.9712</ele>
        <time>2014-07-06T08:38:15Z</time>
      </trkpt>
      <trkpt lat="59.955791" lon="17.7177134">
        <ele>53.4905</ele>
        <time>2014-07-06T08:38:16Z</time>
      </trkpt>
      <trkpt lat="59.9557785" lon="17.7176742">
        <ele>53.4905</ele>
        <time>2014-07-06T08:38:17Z</time>
      </trkpt>
      <trkpt lat="59.9557668" lon="17.7176317">
        <ele>53.4905</ele>
        <time>2014-07-06T08:38:18Z</time>
      </trkpt>
      <trkpt lat="59.9557523" lon="17.7175906">
        <ele>53.4905</ele>
        <time>2014-07-06T08:38:19Z</time>
      </trkpt>
      <trkpt lat="59.9557353" lon="17.7175522">
        <ele>53.4905</ele>
        <time>2014-07-06T08:38:20Z</time>
      </trkpt>
      <trkpt lat="59.9557209" lon="17.7175134">
        <ele>53.9712</ele>
        <time>2014-07-06T08:38:21Z</time>
      </trkpt>
      <trkpt lat="59.9557059" lon="17.7174724">
        <ele>53.9712</ele>
        <time>2014-07-06T08:38:22Z</time>
      </trkpt>
      <trkpt lat="59.9556949" lon="17.7174263">
        <ele>53.9712</ele>
        <time>2014-07-06T08:38:23Z</time>
      </trkpt>
      <trkpt lat="59.9556851" lon="17.7173807">
        <ele>53.4905</ele>
        <time>2014-07-06T08:38:24Z</time>
      </trkpt>
      <trkpt lat="59.9556721" lon="17.7173338">
        <ele>53.0098</ele>
        <time>2014-07-06T08:38:25Z</time>
      </trkpt>
      <trkpt lat="59.9556593" lon="17.7172767">
        <ele>53.0098</ele>
        <time>2014-07-06T08:38:26Z</time>
      </trkpt>
      <trkpt lat="59.9556495" lon="17.7172016">
        <ele>52.5292</ele>
        <time>2014-07-06T08:38:27Z</time>
      </trkpt>
      <trkpt lat="59.9556379" lon="17.7171396">
        <ele>52.5292</ele>
        <time>2014-07-06T08:38:28Z</time>
      </trkpt>
      <trkpt lat="59.9556237" lon="17.7170771">
        <ele>52.0486</ele>
        <time>2014-07-06T08:38:29Z</time>
      </trkpt>
      <trkpt lat="59.9556095" lon="17.7170181">
        <ele>52.0486</ele>
        <time>2014-07-06T08:38:30Z</time>
      </trkpt>
      <trkpt lat="59.9555987" lon="17.7169513">
        <ele>52.0486</ele>
        <time>2014-07-06T08:38:31Z</time>
      </trkpt>
      <trkpt lat="59.955591" lon="17.7168762">
        <ele>51.5679</ele>
        <time>2014-07-06T08:38:32Z</time>
      </trkpt>
      <trkpt lat="59.9555791" lon="17.7167977">
        <ele>51.0872</ele>
        <time>2014-07-06T08:38:33Z</time>
      </trkpt>
      <trkpt lat="59.9555697" lon="17.7167107">
        <ele>50.6066</ele>
        <time>2014-07-06T08:38:34Z</time>
      </trkpt>
      <trkpt lat="59.9555622" lon="17.7166295">
        <ele>50.6066</ele>
        <time>2014-07-06T08:38:35Z</time>
      </trkpt>
      <trkpt lat="59.9555537" lon="17.7165536">
        <ele>50.6066</ele>
        <time>2014-07-06T08:38:36Z</time>
      </trkpt>
      <trkpt lat="59.9555494" lon="17.7164754">
        <ele>51.0872</ele>
        <time>2014-07-06T08:38:37Z</time>
      </trkpt>
      <trkpt lat="59.9555431" lon="17.7163956">
        <ele>51.0872</ele>
        <time>2014-07-06T08:38:38Z</time>
      </trkpt>
      <trkpt lat="59.9555369" lon="17.7163179">
        <ele>50.6066</ele>
        <time>2014-07-06T08:38:39Z</time>
      </trkpt>
      <trkpt lat="59.9555322" lon="17.7162356">
        <ele>50.6066</ele>
        <time>2014-07-06T08:38:40Z</time>
      </trkpt>
      <trkpt lat="59.9555323" lon="17.7161505">
        <ele>50.6066</ele>
        <time>2014-07-06T08:38:41Z</time>
      </trkpt>
      <trkpt lat="59.955533" lon="17.716058">
        <ele>50.6066</ele>
        <time>2014-07-06T08:38:42Z</time>
      </trkpt>
      <trkpt lat="59.9555288" lon="17.7159714">
        <ele>50.6066</ele>
        <time>2014-07-06T08:38:43Z</time>
      </trkpt>
      <trkpt lat="59.9555229" lon="17.7158983">
        <ele>50.6066</ele>
        <time>2014-07-06T08:38:44Z</time>
      </trkpt>
      <trkpt lat="59.9555105" lon="17.7158283">
        <ele>50.6066</ele>
        <time>2014-07-06T08:38:45Z</time>
      </trkpt>
      <trkpt lat="59.9554969" lon="17.7157615">
        <ele>50.6066</ele>
        <time>2014-07-06T08:38:46Z</time>
      </trkpt>
      <trkpt lat="59.9554847" lon="17.7156977">
        <ele>51.0872</ele>
        <time>2014-07-06T08:38:47Z</time>
      </trkpt>
      <trkpt lat="59.955465" lon="17.7156439">
        <ele>51.0872</ele>
        <time>2014-07-06T08:38:48Z</time>
      </trkpt>
      <trkpt lat="59.9554464" lon="17.7155927">
        <ele>51.0872</ele>
        <time>2014-07-06T08:38:49Z</time>
      </trkpt>
      <trkpt lat="59.9554289" lon="17.7155335">
        <ele>51.0872</ele>
        <time>2014-07-06T08:38:50Z</time>
      </trkpt>
      <trkpt lat="59.9554188" lon="17.7154793">
        <ele>51.5679</ele>
        <time>2014-07-06T08:38:51Z</time>
      </trkpt>
      <trkpt lat="59.9554097" lon="17.7154277">
        <ele>51.5679</ele>
        <time>2014-07-06T08:38:52Z</time>
      </trkpt>
      <trkpt lat="59.9554055" lon="17.7153786">
        <ele>52.5292</ele>
        <time>2014-07-06T08:38:53Z</time>
      </trkpt>
      <trkpt lat="59.9554029" lon="17.7153275">
        <ele>53.4905</ele>
        <time>2014-07-06T08:38:54Z</time>
      </trkpt>
      <trkpt lat="59.9553926" lon="17.7152757">
        <ele>53.0098</ele>
        <time>2014-07-06T08:38:55Z</time>
      </trkpt>
      <trkpt lat="59.9553857" lon="17.7152234">
        <ele>53.0098</ele>
        <time>2014-07-06T08:38:56Z</time>
      </trkpt>
      <trkpt lat="59.9553871" lon="17.7151683">
        <ele>53.4905</ele>
        <time>2014-07-06T08:38:57Z</time>
      </trkpt>
      <trkpt lat="59.9553868" lon="17.7151109">
        <ele>53.4905</ele>
        <time>2014-07-06T08:38:58Z</time>
      </trkpt>
      <trkpt lat="59.9553764" lon="17.7150622">
        <ele>53.9712</ele>
        <time>2014-07-06T08:38:59Z</time>
      </trkpt>
      <trkpt lat="59.9553607" lon="17.7150172">
        <ele>54.9324</ele>
        <time>2014-07-06T08:39:00Z</time>
      </trkpt>
      <trkpt lat="59.9553582" lon="17.7149654">
        <ele>55.4131</ele>
        <time>2014-07-06T08:39:01Z</time>
      </trkpt>
      <trkpt lat="59.9553568" lon="17.7149118">
        <ele>56.3745</ele>
        <time>2014-07-06T08:39:02Z</time>
      </trkpt>
      <trkpt lat="59.9553412" lon="17.7148603">
        <ele>55.4131</ele>
        <time>2014-07-06T08:39:03Z</time>
      </trkpt>
      <trkpt lat="59.9553309" lon="17.7148057">
        <ele>55.4131</ele>
        <time>2014-07-06T08:39:04Z</time>
      </trkpt>
      <trkpt lat="59.955319" lon="17.7147577">
        <ele>55.4131</ele>
        <time>2014-07-06T08:39:05Z</time>
      </trkpt>
      <trkpt lat="59.9553006" lon="17.714716">
        <ele>55.4131</ele>
        <time>2014-07-06T08:39:06Z</time>
      </trkpt>
      <trkpt lat="59.955288" lon="17.7146663">
        <ele>55.4131</ele>
        <time>2014-07-06T08:39:07Z</time>
      </trkpt>
      <trkpt lat="59.955278" lon="17.7146152">
        <ele>54.9324</ele>
        <time>2014-07-06T08:39:08Z</time>
      </trkpt>
      <trkpt lat="59.9552728" lon="17.7145711">
        <ele>54.4518</ele>
        <time>2014-07-06T08:39:09Z</time>
      </trkpt>
      <trkpt lat="59.9552645" lon="17.7145236">
        <ele>54.4518</ele>
        <time>2014-07-06T08:39:10Z</time>
      </trkpt>
      <trkpt lat="59.955255" lon="17.7144772">
        <ele>54.4518</ele>
        <time>2014-07-06T08:39:11Z</time>
      </trkpt>
      <trkpt lat="59.9552471" lon="17.7144238">
        <ele>53.9712</ele>
        <time>2014-07-06T08:39:12Z</time>
      </trkpt>
      <trkpt lat="59.9552366" lon="17.7143674">
        <ele>53.4905</ele>
        <time>2014-07-06T08:39:13Z</time>
      </trkpt>
      <trkpt lat="59.955225" lon="17.7143183">
        <ele>53.4905</ele>
        <time>2014-07-06T08:39:14Z</time>
      </trkpt>
      <trkpt lat="59.9552158" lon="17.7142752">
        <ele>52.5292</ele>
        <time>2014-07-06T08:39:15Z</time>
      </trkpt>
      <trkpt lat="59.9552041" lon="17.7142337">
        <ele>52.0486</ele>
        <time>2014-07-06T08:39:16Z</time>
      </trkpt>
      <trkpt lat="59.9551889" lon="17.7141931">
        <ele>51.5679</ele>
        <time>2014-07-06T08:39:17Z</time>
      </trkpt>
      <trkpt lat="59.9551729" lon="17.7141569">
        <ele>51.0872</ele>
        <time>2014-07-06T08:39:18Z</time>
      </trkpt>
      <trkpt lat="59.9551545" lon="17.7141319">
        <ele>50.126</ele>
        <time>2014-07-06T08:39:19Z</time>
      </trkpt>
      <trkpt lat="59.9551367" lon="17.7141272">
        <ele>49.1646</ele>
        <time>2014-07-06T08:39:20Z</time>
      </trkpt>
      <trkpt lat="59.9551195" lon="17.7141473">
        <ele>48.2034</ele>
        <time>2014-07-06T08:39:21Z</time>
      </trkpt>
      <trkpt lat="59.9551059" lon="17.7141876">
        <ele>47.2418</ele>
        <time>2014-07-06T08:39:22Z</time>
      </trkpt>
      <trkpt lat="59.955094" lon="17.7142379">
        <ele>46.2806</ele>
        <time>2014-07-06T08:39:23Z</time>
      </trkpt>
      <trkpt lat="59.9550806" lon="17.7142848">
        <ele>45.3192</ele>
        <time>2014-07-06T08:39:24Z</time>
      </trkpt>
      <trkpt lat="59.9550551" lon="17.7143195">
        <ele>44.8386</ele>
        <time>2014-07-06T08:39:25Z</time>
      </trkpt>
      <trkpt lat="59.9550307" lon="17.7143428">
        <ele>44.358</ele>
        <time>2014-07-06T08:39:26Z</time>
      </trkpt>
      <trkpt lat="59.9550128" lon="17.7143676">
        <ele>44.358</ele>
        <time>2014-07-06T08:39:27Z</time>
      </trkpt>
      <trkpt lat="59.9549962" lon="17.7143918">
        <ele>43.8773</ele>
        <time>2014-07-06T08:39:28Z</time>
      </trkpt>
      <trkpt lat="59.9549824" lon="17.7144247">
        <ele>43.8773</ele>
        <time>2014-07-06T08:39:29Z</time>
      </trkpt>
      <trkpt lat="59.9549698" lon="17.7144642">
        <ele>43.8773</ele>
        <time>2014-07-06T08:39:30Z</time>
      </trkpt>
      <trkpt lat="59.9549537" lon="17.7144979">
        <ele>43.8773</ele>
        <time>2014-07-06T08:39:31Z</time>
      </trkpt>
      <trkpt lat="59.9549299" lon="17.7145354">
        <ele>43.3966</ele>
        <time>2014-07-06T08:39:32Z</time>
      </trkpt>
      <trkpt lat="59.9549073" lon="17.7145718">
        <ele>43.3966</ele>
        <time>2014-07-06T08:39:33Z</time>
      </trkpt>
      <trkpt lat="59.9548859" lon="17.7146126">
        <ele>43.3966</ele>
        <time>2014-07-06T08:39:34Z</time>
      </trkpt>
      <trkpt lat="59.9548648" lon="17.7146446">
        <ele>43.8773</ele>
        <time>2014-07-06T08:39:35Z</time>
      </trkpt>
      <trkpt lat="59.9548446" lon="17.7146715">
        <ele>43.3966</ele>
        <time>2014-07-06T08:39:36Z</time>
      </trkpt>
      <trkpt lat="59.9548253" lon="17.7146969">
        <ele>43.3966</ele>
        <time>2014-07-06T08:39:37Z</time>
      </trkpt>
      <trkpt lat="59.954803" lon="17.7147122">
        <ele>43.8773</ele>
        <time>2014-07-06T08:39:38Z</time>
      </trkpt>
      <trkpt lat="59.9547769" lon="17.7147271">
        <ele>44.358</ele>
        <time>2014-07-06T08:39:39Z</time>
      </trkpt>
      <trkpt lat="59.9547532" lon="17.714735">
        <ele>44.8386</ele>
        <time>2014-07-06T08:39:40Z</time>
      </trkpt>
      <trkpt lat="59.9547293" lon="17.7147373">
        <ele>44.8386</ele>
        <time>2014-07-06T08:39:41Z</time>
      </trkpt>
      <trkpt lat="59.9547036" lon="17.7147355">
        <ele>44.8386</ele>
        <time>2014-07-06T08:39:42Z</time>
      </trkpt>
      <trkpt lat="59.9546769" lon="17.7147391">
        <ele>44.8386</ele>
        <time>2014-07-06T08:39:43Z</time>
      </trkpt>
      <trkpt lat="59.9546554" lon="17.7147378">
        <ele>44.8386</ele>
        <time>2014-07-06T08:39:44Z</time>
      </trkpt>
      <trkpt lat="59.9546322" lon="17.714741">
        <ele>45.3192</ele>
        <time>2014-07-06T08:39:45Z</time>
      </trkpt>
      <trkpt lat="59.9546124" lon="17.7147442">
        <ele>45.7999</ele>
        <time>2014-07-06T08:39:46Z</time>
      </trkpt>
      <trkpt lat="59.954587" lon="17.7147576">
        <ele>45.7999</ele>
        <time>2014-07-06T08:39:47Z</time>
      </trkpt>
      <trkpt lat="59.9545563" lon="17.7147701">
        <ele>45.7999</ele>
        <time>2014-07-06T08:39:48Z</time>
      </trkpt>
      <trkpt lat="59.9545288" lon="17.7147828">
        <ele>46.2806</ele>
        <time>2014-07-06T08:39:49Z</time>
      </trkpt>
      <trkpt lat="59.9545091" lon="17.7147944">
        <ele>46.2806</ele>
        <time>2014-07-06T08:39:50Z</time>
      </trkpt>
      <trkpt lat="59.9544801" lon="17.7148007">
        <ele>45.7999</ele>
        <time>2014-07-06T08:39:51Z</time>
      </trkpt>
      <trkpt lat="59.9544537" lon="17.7148011">
        <ele>45.3192</ele>
        <time>2014-07-06T08:39:52Z</time>
      </trkpt>
      <trkpt lat="59.9544284" lon="17.7148134">
        <ele>45.3192</ele>
        <time>2014-07-06T08:39:53Z</time>
      </trkpt>
      <trkpt lat="59.9544036" lon="17.7148199">
        <ele>45.3192</ele>
        <time>2014-07-06T08:39:54Z</time>
      </trkpt>
      <trkpt lat="59.9543798" lon="17.714827">
        <ele>45.3192</ele>
        <time>2014-07-06T08:39:55Z</time>
      </trkpt>
      <trkpt lat="59.954355" lon="17.7148368">
        <ele>45.3192</ele>
        <time>2014-07-06T08:39:56Z</time>
      </trkpt>
      <trkpt lat="59.9543259" lon="17.7148469">
        <ele>45.3192</ele>
        <time>2014-07-06T08:39:57Z</time>
      </trkpt>
      <trkpt lat="59.9542981" lon="17.7148427">
        <ele>45.3192</ele>
        <time>2014-07-06T08:39:58Z</time>
      </trkpt>
      <trkpt lat="59.9542721" lon="17.7148394">
        <ele>45.7999</ele>
        <time>2014-07-06T08:39:59Z</time>
      </trkpt>
      <trkpt lat="59.9542425" lon="17.7148398">
        <ele>46.2806</ele>
        <time>2014-07-06T08:40:00Z</time>
      </trkpt>
      <trkpt lat="59.9542078" lon="17.7148422">
        <ele>46.7612</ele>
        <time>2014-07-06T08:40:01Z</time>
      </trkpt>
      <trkpt lat="59.954173" lon="17.7148443">
        <ele>47.7225</ele>
        <time>2014-07-06T08:40:02Z</time>
      </trkpt>
      <trkpt lat="59.9541389" lon="17.7148561">
        <ele>48.2034</ele>
        <time>2014-07-06T08:40:03Z</time>
      </trkpt>
      <trkpt lat="59.9541114" lon="17.7148691">
        <ele>48.2034</ele>
        <time>2014-07-06T08:40:04Z</time>
      </trkpt>
    </trkseg>
  </trk>
</gpx>